Observation data for Coyanosa on 02/20/2019      Previous  Date       Current Mesonet Observations  Soil Data  Daily Summary Page  Observations in Plain Language
KCO1 200600Z 20009KT M01/M07 A2996 RMK A01 T10051065  RH  064%=      5-min Rain = 0
KCO1 200601Z 21009KT M00/M07 A2996 RMK A01 T10041065  RH  063%=      5-min Rain = 0
KCO1 200602Z 21009KT M00/M07 A2996 RMK A01 T10041065  RH  063%=      5-min Rain = 0
KCO1 200603Z 20009KT M00/M07 A2996 RMK A01 T10031065  RH  063%=      5-min Rain = 0
KCO1 200604Z 21007KT M00/M07 A2996 RMK A01 T10041066  RH  063%=      5-min Rain = 0
KCO1 200605Z 21009KT M01/M07 A2996 RMK A01 T10051067  RH  063%=      5-min Rain = 0
KCO1 200606Z 21007KT M01/M07 A2996 RMK A01 T10051066  RH  063%=      5-min Rain = 0
KCO1 200607Z 21007KT M00/M07 A2996 RMK A01 T10041066  RH  063%=      5-min Rain = 0
KCO1 200608Z 21008KT M00/M07 A2996 RMK A01 T10041066  RH  063%=      5-min Rain = 0
KCO1 200609Z 20009KT M00/M07 A2995 RMK A01 T10041065  RH  063%=      5-min Rain = 0
KCO1 200610Z 20008KT M00/M06 A2995 RMK A01 T10021064  RH  063%=      5-min Rain = 0
KCO1 200611Z 19009KT M00/M06 A2995 RMK A01 T10021064  RH  063%=      5-min Rain = 0
KCO1 200612Z 19009KT M00/M07 A2995 RMK A01 T10031065  RH  063%=      5-min Rain = 0
KCO1 200613Z 19008KT M00/M07 A2995 RMK A01 T10041066  RH  063%=      5-min Rain = 0
KCO1 200614Z 19009KT M01/M07 A2995 RMK A01 T10051066  RH  063%=      5-min Rain = 0
KCO1 200615Z 19010KT M01/M07 A2995 RMK A01 T10051065  RH  064%=      5-min Rain = 0
KCO1 200616Z 20009KT M01/M07 A2996 RMK A01 T10061065  RH  064%=      5-min Rain = 0
KCO1 200617Z 20008KT M01/M07 A2996 RMK A01 T10051065  RH  064%=      5-min Rain = 0
KCO1 200618Z 20010KT M00/M06 A2995 RMK A01 T10041064  RH  064%=      5-min Rain = 0
KCO1 200619Z 20008KT M00/M06 A2995 RMK A01 T10041064  RH  064%=      5-min Rain = 0
KCO1 200620Z 21009KT M00/M07 A2995 RMK A01 T10041065  RH  063%=      5-min Rain = 0
KCO1 200621Z 20009KT M00/M06 A2995 RMK A01 T10021064  RH  063%=      5-min Rain = 0
KCO1 200622Z 20009KT M00/M07 A2995 RMK A01 T10011065  RH  062%=      5-min Rain = 0
KCO1 200623Z 20009KT M00/M07 A2995 RMK A01 T10011065  RH  062%=      5-min Rain = 0
KCO1 200624Z 20008KT M00/M07 A2995 RMK A01 T10021066  RH  062%=      5-min Rain = 0
KCO1 200625Z 20008KT M00/M07 A2995 RMK A01 T10031067  RH  062%=      5-min Rain = 0
KCO1 200626Z 20008KT M00/M07 A2995 RMK A01 T10041068  RH  062%=      5-min Rain = 0
KCO1 200627Z 20008KT M01/M07 A2995 RMK A01 T10051068  RH  063%=      5-min Rain = 0
KCO1 200628Z 20008KT M00/M07 A2995 RMK A01 T10041067  RH  063%=      5-min Rain = 0
KCO1 200629Z 20008KT M00/M07 A2995 RMK A01 T10031066  RH  062%=      5-min Rain = 0
KCO1 200630Z 20008KT M00/M07 A2995 RMK A01 T10031067  RH  062%=      5-min Rain = 0
KCO1 200631Z 20007KT M00/M07 A2995 RMK A01 T10041067  RH  062%=      5-min Rain = 0
KCO1 200632Z 20007KT M00/M07 A2995 RMK A01 T10041067  RH  062%=      5-min Rain = 0
KCO1 200633Z 20008KT M00/M07 A2995 RMK A01 T10041067  RH  062%=      5-min Rain = 0
KCO1 200634Z 19007KT M00/M07 A2995 RMK A01 T10041068  RH  062%=      5-min Rain = 0
KCO1 200635Z 19007KT M01/M07 A2995 RMK A01 T10051068  RH  062%=      5-min Rain = 0
KCO1 200636Z 20007KT M01/M07 A2995 RMK A01 T10051068  RH  062%=      5-min Rain = 0
KCO1 200637Z 19007KT M01/M07 A2995 RMK A01 T10061069  RH  063%=      5-min Rain = 0
KCO1 200638Z 20008KT M01/M07 A2995 RMK A01 T10061068  RH  063%=      5-min Rain = 0
KCO1 200639Z 20008KT M01/M07 A2995 RMK A01 T10071069  RH  063%=      5-min Rain = 0
KCO1 200640Z 19008KT M01/M07 A2995 RMK A01 T10071069  RH  063%=      5-min Rain = 0
KCO1 200641Z 19009KT M01/M07 A2995 RMK A01 T10071070  RH  063%=      5-min Rain = 0
KCO1 200642Z 19007KT M01/M07 A2995 RMK A01 T10101071  RH  063%=      5-min Rain = 0
KCO1 200643Z 19008KT M01/M07 A2995 RMK A01 T10111071  RH  064%=      5-min Rain = 0
KCO1 200644Z 19009KT M01/M07 A2995 RMK A01 T10131070  RH  065%=      5-min Rain = 0
KCO1 200645Z 19008KT M01/M07 A2995 RMK A01 T10141070  RH  066%=      5-min Rain = 0
KCO1 200646Z 19008KT M02/M07 A2995 RMK A01 T10151070  RH  066%=      5-min Rain = 0
KCO1 200647Z 20008KT M02/M07 A2995 RMK A01 T10151069  RH  066%=      5-min Rain = 0
KCO1 200648Z 20008KT M02/M07 A2995 RMK A01 T10151069  RH  066%=      5-min Rain = 0
KCO1 200649Z 21008KT M01/M07 A2995 RMK A01 T10131067  RH  066%=      5-min Rain = 0
KCO1 200650Z 21007KT M01/M07 A2995 RMK A01 T10091067  RH  065%=      5-min Rain = 0
KCO1 200651Z 21007KT M01/M07 A2995 RMK A01 T10081068  RH  064%=      5-min Rain = 0
KCO1 200652Z 20007KT M01/M07 A2995 RMK A01 T10081069  RH  063%=      5-min Rain = 0
KCO1 200653Z 20007KT M01/M07 A2995 RMK A01 T10081070  RH  063%=      5-min Rain = 0
KCO1 200654Z 20008KT M01/M07 A2995 RMK A01 T10081070  RH  063%=      5-min Rain = 0
KCO1 200655Z 20008KT M01/M07 A2995 RMK A01 T10091071  RH  063%=      5-min Rain = 0
KCO1 200656Z 20008KT M01/M07 A2995 RMK A01 T10091071  RH  063%=      5-min Rain = 0
KCO1 200657Z 20008KT M01/M07 A2995 RMK A01 T10101071  RH  063%=      5-min Rain = 0
KCO1 200658Z 20008KT M01/M07 A2995 RMK A01 T10111072  RH  063%=      5-min Rain = 0
KCO1 200659Z 20008KT M01/M07 A2995 RMK A01 T10121072  RH  064%=      5-min Rain = 0
KCO1 200700Z 20007KT M01/M07 A2995 RMK A01 T10121072  RH  064%=      5-min Rain = 0
KCO1 200701Z 20007KT M01/M07 A2995 RMK A01 T10131072  RH  064%=      5-min Rain = 0
KCO1 200702Z 20007KT M01/M07 A2995 RMK A01 T10131072  RH  064%=      5-min Rain = 0
KCO1 200703Z 21006KT M01/M07 A2995 RMK A01 T10131072  RH  064%=      5-min Rain = 0
KCO1 200704Z 21007KT M01/M07 A2995 RMK A01 T10131072  RH  064%=      5-min Rain = 0
KCO1 200705Z 20007KT M01/M07 A2995 RMK A01 T10141073  RH  064%=      5-min Rain = 0
KCO1 200706Z 20007KT M02/M07 A2995 RMK A01 T10151073  RH  064%=      5-min Rain = 0
KCO1 200707Z 20007KT M02/M08 A2995 RMK A01 T10161075  RH  064%=      5-min Rain = 0
KCO1 200708Z 20008KT M02/M07 A2995 RMK A01 T10171074  RH  065%=      5-min Rain = 0
KCO1 200709Z 20008KT M02/M08 A2995 RMK A01 T10181075  RH  065%=      5-min Rain = 0
KCO1 200710Z 21009KT M02/M07 A2995 RMK A01 T10181074  RH  066%=      5-min Rain = 0
KCO1 200711Z 21008KT M02/M07 A2996 RMK A01 T10181073  RH  066%=      5-min Rain = 0
KCO1 200712Z 21008KT M02/M07 A2996 RMK A01 T10161072  RH  066%=      5-min Rain = 0
KCO1 200713Z 21008KT M02/M07 A2995 RMK A01 T10151072  RH  065%=      5-min Rain = 0
KCO1 200714Z 21007KT M01/M07 A2995 RMK A01 T10131071  RH  064%=      5-min Rain = 0
KCO1 200715Z 22007KT M01/M07 A2995 RMK A01 T10111071  RH  064%=      5-min Rain = 0
KCO1 200716Z 22007KT M01/M07 A2995 RMK A01 T10101072  RH  063%=      5-min Rain = 0
KCO1 200717Z 22007KT M01/M07 A2995 RMK A01 T10101072  RH  063%=      5-min Rain = 0
KCO1 200718Z 23008KT M01/M07 A2995 RMK A01 T10101073  RH  062%=      5-min Rain = 0
KCO1 200719Z 23008KT M01/M07 A2995 RMK A01 T10091072  RH  062%=      5-min Rain = 0
KCO1 200720Z 22008KT M01/M07 A2995 RMK A01 T10071071  RH  062%=      5-min Rain = 0
KCO1 200721Z 23009KT M01/M07 A2995 RMK A01 T10061070  RH  062%=      5-min Rain = 0
KCO1 200722Z 23009KT M00/M07 A2996 RMK A01 T10031069  RH  061%=      5-min Rain = 0
KCO1 200723Z 22008KT 00/07 A2996 RMK A01 T00-00-68  RH  060%=      5-min Rain = 0
KCO1 200724Z 22009KT 00/M07 A2996 RMK A01 T00021068  RH  059%=      5-min Rain = 0
KCO1 200725Z 22009KT 01/M07 A2996 RMK A01 T00051067  RH  058%=      5-min Rain = 0
KCO1 200726Z 22010KT 01/M07 A2996 RMK A01 T00071067  RH  058%=      5-min Rain = 0
KCO1 200727Z 23009KT 01/M07 A2996 RMK A01 T00111066  RH  057%=      5-min Rain = 0
KCO1 200728Z 23009KT 02/M07 A2996 RMK A01 T00161065  RH  055%=      5-min Rain = 0
KCO1 200729Z 23010KT 02/M07 A2996 RMK A01 T00201065  RH  053%=      5-min Rain = 0
KCO1 200730Z 22010KT 02/M07 A2996 RMK A01 T00231066  RH  052%=      5-min Rain = 0
KCO1 200731Z 22010KT 02/M07 A2996 RMK A01 T00241066  RH  051%=      5-min Rain = 0
KCO1 200732Z 22009KT 02/M07 A2996 RMK A01 T00231067  RH  051%=      5-min Rain = 0
KCO1 200733Z 23009KT 02/M07 A2996 RMK A01 T00221068  RH  051%=      5-min Rain = 0
KCO1 200734Z 23009KT 02/M07 A2996 RMK A01 T00211069  RH  051%=      5-min Rain = 0
KCO1 200735Z 22009KT 02/M07 A2996 RMK A01 T00211068  RH  052%=      5-min Rain = 0
KCO1 200736Z 23009KT 02/M07 A2996 RMK A01 T00211068  RH  052%=      5-min Rain = 0
KCO1 200737Z 23009KT 02/M07 A2996 RMK A01 T00211068  RH  052%=      5-min Rain = 0
KCO1 200738Z 23009KT 02/M07 A2996 RMK A01 T00221068  RH  051%=      5-min Rain = 0
KCO1 200739Z 23009KT 02/M07 A2996 RMK A01 T00231068  RH  051%=      5-min Rain = 0
KCO1 200740Z 23009KT 02/M07 A2996 RMK A01 T00241068  RH  051%=      5-min Rain = 0
KCO1 200741Z 23010KT 03/M07 A2996 RMK A01 T00251068  RH  050%=      5-min Rain = 0
KCO1 200742Z 23010KT 03/M07 A2996 RMK A01 T00261068  RH  050%=      5-min Rain = 0
KCO1 200743Z 23010KT 03/M07 A2996 RMK A01 T00271069  RH  049%=      5-min Rain = 0
KCO1 200744Z 24011KT 03/M07 A2996 RMK A01 T00281069  RH  049%=      5-min Rain = 0
KCO1 200745Z 24011KT 03/M07 A2996 RMK A01 T00281069  RH  049%=      5-min Rain = 0
KCO1 200746Z 24011KT 03/M07 A2996 RMK A01 T00291069  RH  048%=      5-min Rain = 0
KCO1 200747Z 24010KT 03/M07 A2996 RMK A01 T00291069  RH  048%=      5-min Rain = 0
KCO1 200748Z 24012KT 03/M07 A2996 RMK A01 T00301069  RH  048%=      5-min Rain = 0
KCO1 200749Z 24010KT 03/M07 A2996 RMK A01 T00321069  RH  047%=      5-min Rain = 0
KCO1 200750Z 24011KT 03/M07 A2996 RMK A01 T00341070  RH  047%=      5-min Rain = 0
KCO1 200751Z 23012KT 04/M07 A2996 RMK A01 T00361070  RH  046%=      5-min Rain = 0
KCO1 200752Z 24012KT 04/M07 A2995 RMK A01 T00381070  RH  045%=      5-min Rain = 0
KCO1 200753Z 24011KT 04/M07 A2995 RMK A01 T00391071  RH  044%=      5-min Rain = 0
KCO1 200754Z 24010KT 04/M07 A2995 RMK A01 T00401071  RH  044%=      5-min Rain = 0
KCO1 200755Z 25011KT 04/M07 A2995 RMK A01 T00411072  RH  043%=      5-min Rain = 0
KCO1 200756Z 25014KT 04/M07 A2995 RMK A01 T00431073  RH  043%=      5-min Rain = 0
KCO1 200757Z 24013KT 05/M07 A2995 RMK A01 T00451074  RH  042%=      5-min Rain = 0
KCO1 200758Z 25014KT 05/M08 A2995 RMK A01 T00461075  RH  041%=      5-min Rain = 0
KCO1 200759Z 25015KT 05/M08 A2995 RMK A01 T00471076  RH  041%=      5-min Rain = 0
KCO1 200800Z 25013KT 05/M08 A2995 RMK A01 T00471076  RH  040%=      5-min Rain = 0
KCO1 200801Z 25011KT 05/M08 A2995 RMK A01 T00471077  RH  040%=      5-min Rain = 0
KCO1 200802Z 25011KT 05/M08 A2995 RMK A01 T00451078  RH  041%=      5-min Rain = 0
KCO1 200803Z 25010KT 04/M08 A2995 RMK A01 T00431078  RH  041%=      5-min Rain = 0
KCO1 200804Z 25011KT 04/M08 A2995 RMK A01 T00421078  RH  041%=      5-min Rain = 0
KCO1 200805Z 25012KT 04/M08 A2996 RMK A01 T00411078  RH  042%=      5-min Rain = 0
KCO1 200806Z 24010KT 04/M08 A2996 RMK A01 T00401078  RH  042%=      5-min Rain = 0
KCO1 200807Z 25011KT 04/M08 A2996 RMK A01 T00401078  RH  042%=      5-min Rain = 0
KCO1 200808Z 25011KT 04/M08 A2996 RMK A01 T00401077  RH  042%=      5-min Rain = 0
KCO1 200809Z 24012KT 04/M08 A2996 RMK A01 T00401078  RH  042%=      5-min Rain = 0
KCO1 200810Z 25011KT 04/M08 A2996 RMK A01 T00411078  RH  042%=      5-min Rain = 0
KCO1 200811Z 24011KT 04/M08 A2996 RMK A01 T00411078  RH  042%=      5-min Rain = 0
KCO1 200812Z 24010KT 04/M08 A2996 RMK A01 T00411079  RH  041%=      5-min Rain = 0
KCO1 200813Z 25011KT 04/M08 A2996 RMK A01 T00411079  RH  041%=      5-min Rain = 0
KCO1 200814Z 25010KT 04/M08 A2996 RMK A01 T00401079  RH  041%=      5-min Rain = 0
KCO1 200815Z 25011KT 04/M08 A2996 RMK A01 T00411079  RH  041%=      5-min Rain = 0
KCO1 200816Z 25010KT 04/M08 A2996 RMK A01 T00411080  RH  041%=      5-min Rain = 0
KCO1 200817Z 24009KT 04/M08 A2996 RMK A01 T00401080  RH  041%=      5-min Rain = 0
KCO1 200818Z 25009KT 04/M08 A2996 RMK A01 T00401080  RH  041%=      5-min Rain = 0
KCO1 200819Z 25009KT 04/M08 A2996 RMK A01 T00391080  RH  041%=      5-min Rain = 0
KCO1 200820Z 25011KT 04/M08 A2996 RMK A01 T00391080  RH  041%=      5-min Rain = 0
KCO1 200821Z 24009KT 04/M08 A2996 RMK A01 T00391080  RH  041%=      5-min Rain = 0
KCO1 200822Z 24009KT 04/M08 A2996 RMK A01 T00391080  RH  042%=      5-min Rain = 0
KCO1 200823Z 24008KT 04/M08 A2996 RMK A01 T00391079  RH  042%=      5-min Rain = 0
KCO1 200824Z 23008KT 04/M08 A2996 RMK A01 T00391079  RH  042%=      5-min Rain = 0
KCO1 200825Z 23008KT 04/M08 A2996 RMK A01 T00381079  RH  042%=      5-min Rain = 0
KCO1 200826Z 23010KT 04/M08 A2996 RMK A01 T00371079  RH  042%=      5-min Rain = 0
KCO1 200827Z 22010KT 04/M08 A2996 RMK A01 T00361079  RH  043%=      5-min Rain = 0
KCO1 200828Z 23009KT 03/M08 A2996 RMK A01 T00341079  RH  043%=      5-min Rain = 0
KCO1 200829Z 22008KT 03/M08 A2996 RMK A01 T00331079  RH  044%=      5-min Rain = 0
KCO1 200830Z 22008KT 03/M08 A2996 RMK A01 T00311079  RH  044%=      5-min Rain = 0
KCO1 200831Z 22008KT 03/M08 A2996 RMK A01 T00301079  RH  044%=      5-min Rain = 0
KCO1 200832Z 22007KT 03/M08 A2997 RMK A01 T00291080  RH  045%=      5-min Rain = 0
KCO1 200833Z 22009KT 03/M08 A2996 RMK A01 T00281079  RH  045%=      5-min Rain = 0
KCO1 200834Z 22008KT 03/M08 A2996 RMK A01 T00281080  RH  045%=      5-min Rain = 0
KCO1 200835Z 22008KT 03/M08 A2996 RMK A01 T00271080  RH  045%=      5-min Rain = 0
KCO1 200836Z 22009KT 03/M08 A2996 RMK A01 T00271080  RH  045%=      5-min Rain = 0
KCO1 200837Z 22008KT 03/M08 A2996 RMK A01 T00281079  RH  045%=      5-min Rain = 0
KCO1 200838Z 22008KT 03/M08 A2996 RMK A01 T00291079  RH  045%=      5-min Rain = 0
KCO1 200839Z 22007KT 03/M08 A2996 RMK A01 T00291080  RH  045%=      5-min Rain = 0
KCO1 200840Z 22008KT 03/M08 A2996 RMK A01 T00291080  RH  045%=      5-min Rain = 0
KCO1 200841Z 23008KT 03/M08 A2996 RMK A01 T00291080  RH  045%=      5-min Rain = 0
KCO1 200842Z 23007KT 03/M08 A2996 RMK A01 T00311080  RH  044%=      5-min Rain = 0
KCO1 200843Z 22009KT 03/M08 A2996 RMK A01 T00311080  RH  044%=      5-min Rain = 0
KCO1 200844Z 21008KT 03/M08 A2996 RMK A01 T00321080  RH  044%=      5-min Rain = 0
KCO1 200845Z 21008KT 03/M08 A2996 RMK A01 T00321080  RH  043%=      5-min Rain = 0
KCO1 200846Z 21009KT 03/M08 A2996 RMK A01 T00331081  RH  043%=      5-min Rain = 0
KCO1 200847Z 21008KT 03/M08 A2996 RMK A01 T00341081  RH  043%=      5-min Rain = 0
KCO1 200848Z 21008KT 03/M08 A2996 RMK A01 T00341081  RH  043%=      5-min Rain = 0
KCO1 200849Z 22009KT 03/M08 A2996 RMK A01 T00341081  RH  043%=      5-min Rain = 0
KCO1 200850Z 21009KT 04/M08 A2996 RMK A01 T00351081  RH  042%=      5-min Rain = 0
KCO1 200851Z 21009KT 04/M08 A2996 RMK A01 T00351081  RH  042%=      5-min Rain = 0
KCO1 200852Z 21009KT 04/M08 A2996 RMK A01 T00351082  RH  042%=      5-min Rain = 0
KCO1 200853Z 21010KT 04/M08 A2996 RMK A01 T00361082  RH  042%=      5-min Rain = 0
KCO1 200854Z 21009KT 04/M08 A2996 RMK A01 T00361082  RH  042%=      5-min Rain = 0
KCO1 200855Z 21009KT 04/M08 A2996 RMK A01 T00361083  RH  041%=      5-min Rain = 0
KCO1 200856Z 21010KT 04/M08 A2996 RMK A01 T00361083  RH  041%=      5-min Rain = 0
KCO1 200857Z 20009KT 04/M08 A2996 RMK A01 T00371083  RH  041%=      5-min Rain = 0
KCO1 200858Z 21009KT 04/M08 A2996 RMK A01 T00371083  RH  041%=      5-min Rain = 0
KCO1 200859Z 22008KT 04/M08 A2996 RMK A01 T00361083  RH  041%=      5-min Rain = 0
KCO1 200900Z 21009KT 04/M08 A2997 RMK A01 T00361083  RH  041%=      5-min Rain = 0
KCO1 200901Z 22010KT 04/M08 A2997 RMK A01 T00361083  RH  041%=      5-min Rain = 0
KCO1 200902Z 22008KT 04/M08 A2997 RMK A01 T00361083  RH  041%=      5-min Rain = 0
KCO1 200903Z 22009KT 04/M08 A2997 RMK A01 T00361084  RH  041%=      5-min Rain = 0
KCO1 200904Z 22009KT 04/M08 A2997 RMK A01 T00351084  RH  041%=      5-min Rain = 0
KCO1 200905Z 22009KT 04/M08 A2997 RMK A01 T00351084  RH  041%=      5-min Rain = 0
KCO1 200906Z 22007KT 04/M08 A2997 RMK A01 T00351084  RH  041%=      5-min Rain = 0
KCO1 200907Z 22008KT 04/M08 A2997 RMK A01 T00351084  RH  041%=      5-min Rain = 0
KCO1 200908Z 22010KT 04/M08 A2997 RMK A01 T00351084  RH  041%=      5-min Rain = 0
KCO1 200909Z 22009KT 04/M08 A2997 RMK A01 T00361084  RH  041%=      5-min Rain = 0
KCO1 200910Z 22010KT 04/M09 A2997 RMK A01 T00361085  RH  041%=      5-min Rain = 0
KCO1 200911Z 21008KT 04/M09 A2997 RMK A01 T00361086  RH  040%=      5-min Rain = 0
KCO1 200912Z 22007KT 04/M09 A2997 RMK A01 T00371086  RH  040%=      5-min Rain = 0
KCO1 200913Z 22007KT 04/M09 A2997 RMK A01 T00371087  RH  040%=      5-min Rain = 0
KCO1 200914Z 22008KT 04/M09 A2997 RMK A01 T00361087  RH  040%=      5-min Rain = 0
KCO1 200915Z 22009KT 04/M09 A2997 RMK A01 T00351087  RH  040%=      5-min Rain = 0
KCO1 200916Z 23007KT 04/M09 A2997 RMK A01 T00351088  RH  040%=      5-min Rain = 0
KCO1 200917Z 22007KT 04/M09 A2997 RMK A01 T00351088  RH  040%=      5-min Rain = 0
KCO1 200918Z 22008KT 03/M09 A2997 RMK A01 T00341088  RH  040%=      5-min Rain = 0
KCO1 200919Z 22008KT 03/M09 A2997 RMK A01 T00331088  RH  041%=      5-min Rain = 0
KCO1 200920Z 22009KT 03/M09 A2997 RMK A01 T00331089  RH  041%=      5-min Rain = 0
KCO1 200921Z 21009KT 03/M09 A2997 RMK A01 T00331089  RH  041%=      5-min Rain = 0
KCO1 200922Z 21009KT 03/M09 A2997 RMK A01 T00331089  RH  040%=      5-min Rain = 0
KCO1 200923Z 21010KT 03/M09 A2997 RMK A01 T00341089  RH  040%=      5-min Rain = 0
KCO1 200924Z 21009KT 04/M09 A2997 RMK A01 T00351089  RH  040%=      5-min Rain = 0
KCO1 200925Z 21010KT 04/M09 A2997 RMK A01 T00351089  RH  040%=      5-min Rain = 0
KCO1 200926Z 21008KT 04/M09 A2997 RMK A01 T00351089  RH  040%=      5-min Rain = 0
KCO1 200927Z 21008KT 04/M09 A2997 RMK A01 T00351090  RH  040%=      5-min Rain = 0
KCO1 200928Z 21010KT 04/M09 A2997 RMK A01 T00351090  RH  040%=      5-min Rain = 0
KCO1 200929Z 21008KT 04/M09 A2997 RMK A01 T00351089  RH  040%=      5-min Rain = 0
KCO1 200930Z 21009KT 04/M09 A2997 RMK A01 T00351089  RH  040%=      5-min Rain = 0
KCO1 200931Z 21009KT 04/M09 A2997 RMK A01 T00351089  RH  040%=      5-min Rain = 0
KCO1 200932Z 21008KT 04/M09 A2997 RMK A01 T00351089  RH  040%=      5-min Rain = 0
KCO1 200933Z 21010KT 03/M09 A2997 RMK A01 T00341090  RH  040%=      5-min Rain = 0
KCO1 200934Z 21008KT 03/M09 A2997 RMK A01 T00341090  RH  040%=      5-min Rain = 0
KCO1 200935Z 21009KT 03/M09 A2997 RMK A01 T00341090  RH  040%=      5-min Rain = 0
KCO1 200936Z 21010KT 03/M09 A2997 RMK A01 T00341090  RH  040%=      5-min Rain = 0
KCO1 200937Z 22009KT 04/M09 A2997 RMK A01 T00351090  RH  039%=      5-min Rain = 0
KCO1 200938Z 22009KT 04/M09 A2997 RMK A01 T00351091  RH  039%=      5-min Rain = 0
KCO1 200939Z 22008KT 04/M09 A2997 RMK A01 T00351091  RH  039%=      5-min Rain = 0
KCO1 200940Z 22008KT 03/M09 A2997 RMK A01 T00331091  RH  040%=      5-min Rain = 0
KCO1 200941Z 21011KT 03/M09 A2997 RMK A01 T00331091  RH  040%=      5-min Rain = 0
KCO1 200942Z 21010KT 03/M09 A2997 RMK A01 T00321091  RH  040%=      5-min Rain = 0
KCO1 200943Z 22009KT 03/M09 A2997 RMK A01 T00321091  RH  040%=      5-min Rain = 0
KCO1 200944Z 22008KT 03/M09 A2997 RMK A01 T00331091  RH  040%=      5-min Rain = 0
KCO1 200945Z 21008KT 03/M09 A2997 RMK A01 T00331091  RH  040%=      5-min Rain = 0
KCO1 200946Z 22009KT 03/M09 A2997 RMK A01 T00321091  RH  040%=      5-min Rain = 0
KCO1 200947Z 21009KT 03/M09 A2997 RMK A01 T00321091  RH  040%=      5-min Rain = 0
KCO1 200948Z 22008KT 03/M09 A2997 RMK A01 T00321092  RH  040%=      5-min Rain = 0
KCO1 200949Z 23007KT 03/M09 A2997 RMK A01 T00321092  RH  040%=      5-min Rain = 0
KCO1 200950Z 22007KT 03/M09 A2997 RMK A01 T00321092  RH  040%=      5-min Rain = 0
KCO1 200951Z 22008KT 03/M09 A2997 RMK A01 T00311092  RH  040%=      5-min Rain = 0
KCO1 200952Z 22008KT 03/M09 A2997 RMK A01 T00301092  RH  040%=      5-min Rain = 0
KCO1 200953Z 22009KT 03/M09 A2997 RMK A01 T00291093  RH  040%=      5-min Rain = 0
KCO1 200954Z 21009KT 03/M09 A2997 RMK A01 T00291093  RH  040%=      5-min Rain = 0
KCO1 200955Z 22009KT 03/M09 A2997 RMK A01 T00291093  RH  040%=      5-min Rain = 0
KCO1 200956Z 21009KT 03/M09 A2997 RMK A01 T00291093  RH  040%=      5-min Rain = 0
KCO1 200957Z 21008KT 03/M09 A2997 RMK A01 T00291093  RH  040%=      5-min Rain = 0
KCO1 200958Z 21009KT 03/M09 A2997 RMK A01 T00281093  RH  041%=      5-min Rain = 0
KCO1 200959Z 21009KT 03/M09 A2997 RMK A01 T00271093  RH  041%=      5-min Rain = 0
KCO1 201000Z 21009KT 03/M09 A2997 RMK A01 T00271093  RH  041%=      5-min Rain = 0
KCO1 201001Z 21009KT 03/M09 A2997 RMK A01 T00271093  RH  041%=      5-min Rain = 0
KCO1 201002Z 21009KT 03/M09 A2997 RMK A01 T00281093  RH  041%=      5-min Rain = 0
KCO1 201003Z 22008KT 03/M09 A2997 RMK A01 T00271093  RH  041%=      5-min Rain = 0
KCO1 201004Z 21008KT 03/M09 A2997 RMK A01 T00261093  RH  041%=      5-min Rain = 0
KCO1 201005Z 21008KT 03/M09 A2997 RMK A01 T00261093  RH  041%=      5-min Rain = 0
KCO1 201006Z 21008KT 03/M09 A2997 RMK A01 T00251093  RH  041%=      5-min Rain = 0
KCO1 201007Z 21009KT 03/M09 A2997 RMK A01 T00251093  RH  041%=      5-min Rain = 0
KCO1 201008Z 21008KT 03/M09 A2997 RMK A01 T00251093  RH  041%=      5-min Rain = 0
KCO1 201009Z 21008KT 03/M09 A2997 RMK A01 T00251093  RH  041%=      5-min Rain = 0
KCO1 201010Z 22007KT 03/M09 A2997 RMK A01 T00251093  RH  041%=      5-min Rain = 0
KCO1 201011Z 22008KT 02/M09 A2997 RMK A01 T00241093  RH  041%=      5-min Rain = 0
KCO1 201012Z 22008KT 02/M09 A2997 RMK A01 T00241094  RH  042%=      5-min Rain = 0
KCO1 201013Z 22008KT 02/M09 A2997 RMK A01 T00231094  RH  042%=      5-min Rain = 0
KCO1 201014Z 22008KT 02/M09 A2997 RMK A01 T00231094  RH  042%=      5-min Rain = 0
KCO1 201015Z 22008KT 02/M09 A2997 RMK A01 T00231094  RH  042%=      5-min Rain = 0
KCO1 201016Z 22007KT 02/M09 A2997 RMK A01 T00231094  RH  042%=      5-min Rain = 0
KCO1 201017Z 22008KT 02/M09 A2997 RMK A01 T00231094  RH  042%=      5-min Rain = 0
KCO1 201018Z 22008KT 02/M09 A2996 RMK A01 T00231094  RH  042%=      5-min Rain = 0
KCO1 201019Z 22007KT 02/M09 A2997 RMK A01 T00231094  RH  042%=      5-min Rain = 0
KCO1 201020Z 22006KT 02/M09 A2997 RMK A01 T00231094  RH  042%=      5-min Rain = 0
KCO1 201021Z 22006KT 02/M09 A2997 RMK A01 T00221094  RH  042%=      5-min Rain = 0
KCO1 201022Z 22007KT 02/M09 A2997 RMK A01 T00211094  RH  042%=      5-min Rain = 0
KCO1 201023Z 22006KT 02/M10 A2997 RMK A01 T00211095  RH  042%=      5-min Rain = 0
KCO1 201024Z 21007KT 02/M09 A2996 RMK A01 T00211094  RH  042%=      5-min Rain = 0
KCO1 201025Z 21007KT 02/M10 A2996 RMK A01 T00201095  RH  042%=      5-min Rain = 0
KCO1 201026Z 22007KT 02/M10 A2996 RMK A01 T00201095  RH  042%=      5-min Rain = 0
KCO1 201027Z 21007KT 02/M10 A2996 RMK A01 T00201095  RH  042%=      5-min Rain = 0
KCO1 201028Z 21008KT 02/M10 A2996 RMK A01 T00201095  RH  042%=      5-min Rain = 0
KCO1 201029Z 21008KT 02/M10 A2996 RMK A01 T00201095  RH  042%=      5-min Rain = 0
KCO1 201030Z 21009KT 02/M10 A2996 RMK A01 T00211095  RH  042%=      5-min Rain = 0
KCO1 201031Z 21008KT 02/M10 A2996 RMK A01 T00221095  RH  042%=      5-min Rain = 0
KCO1 201032Z 21008KT 02/M10 A2996 RMK A01 T00221095  RH  042%=      5-min Rain = 0
KCO1 201033Z 21009KT 02/M10 A2996 RMK A01 T00211096  RH  042%=      5-min Rain = 0
KCO1 201034Z 20009KT 02/M10 A2996 RMK A01 T00211096  RH  042%=      5-min Rain = 0
KCO1 201035Z 21008KT 02/M10 A2996 RMK A01 T00211096  RH  042%=      5-min Rain = 0
KCO1 201036Z 21009KT 02/M10 A2996 RMK A01 T00211096  RH  042%=      5-min Rain = 0
KCO1 201037Z 21008KT 02/M10 A2996 RMK A01 T00211096  RH  042%=      5-min Rain = 0
KCO1 201038Z 21008KT 02/M10 A2996 RMK A01 T00201096  RH  042%=      5-min Rain = 0
KCO1 201039Z 21009KT 02/M10 A2996 RMK A01 T00201097  RH  042%=      5-min Rain = 0
KCO1 201040Z 21008KT 02/M10 A2996 RMK A01 T00191097  RH  042%=      5-min Rain = 0
KCO1 201041Z 21009KT 02/M10 A2996 RMK A01 T00191097  RH  042%=      5-min Rain = 0
KCO1 201042Z 21009KT 02/M10 A2996 RMK A01 T00191097  RH  042%=      5-min Rain = 0
KCO1 201043Z 21009KT 02/M10 A2996 RMK A01 T00191097  RH  042%=      5-min Rain = 0
KCO1 201044Z 22008KT 02/M10 A2996 RMK A01 T00181097  RH  042%=      5-min Rain = 0
KCO1 201045Z 22008KT 02/M10 A2996 RMK A01 T00181098  RH  042%=      5-min Rain = 0
KCO1 201046Z 22009KT 02/M10 A2996 RMK A01 T00171098  RH  042%=      5-min Rain = 0
KCO1 201047Z 22008KT 02/M10 A2996 RMK A01 T00161098  RH  042%=      5-min Rain = 0
KCO1 201048Z 22008KT 02/M10 A2996 RMK A01 T00161098  RH  043%=      5-min Rain = 0
KCO1 201049Z 22009KT 02/M10 A2996 RMK A01 T00151098  RH  043%=      5-min Rain = 0
KCO1 201050Z 22008KT 02/M10 A2996 RMK A01 T00151098  RH  043%=      5-min Rain = 0
KCO1 201051Z 22008KT 01/M10 A2996 RMK A01 T00141098  RH  043%=      5-min Rain = 0
KCO1 201052Z 22009KT 01/M10 A2996 RMK A01 T00141098  RH  043%=      5-min Rain = 0
KCO1 201053Z 22009KT 01/M10 A2996 RMK A01 T00141098  RH  043%=      5-min Rain = 0
KCO1 201054Z 22009KT 01/M10 A2996 RMK A01 T00131098  RH  043%=      5-min Rain = 0
KCO1 201055Z 23009KT 01/M10 A2996 RMK A01 T00131098  RH  043%=      5-min Rain = 0
KCO1 201056Z 22009KT 01/M10 A2996 RMK A01 T00131099  RH  043%=      5-min Rain = 0
KCO1 201057Z 22009KT 01/M10 A2996 RMK A01 T00121099  RH  043%=      5-min Rain = 0
KCO1 201058Z 23008KT 01/M10 A2996 RMK A01 T00121099  RH  043%=      5-min Rain = 0
KCO1 201059Z 23009KT 01/M10 A2996 RMK A01 T00111099  RH  044%=      5-min Rain = 0
KCO1 201100Z 23009KT 01/M10 A2996 RMK A01 T00111099  RH  044%=      5-min Rain = 0
KCO1 201101Z 23009KT 01/M10 A2996 RMK A01 T00111099  RH  044%=      5-min Rain = 0
KCO1 201102Z 23009KT 01/M10 A2996 RMK A01 T00111099  RH  044%=      5-min Rain = 0
KCO1 201103Z 23009KT 01/M10 A2996 RMK A01 T00121099  RH  043%=      5-min Rain = 0
KCO1 201104Z 24009KT 01/M10 A2996 RMK A01 T00121099  RH  043%=      5-min Rain = 0
KCO1 201105Z 23011KT 01/M10 A2996 RMK A01 T00131099  RH  043%=      5-min Rain = 0
KCO1 201106Z 23010KT 01/M10 A2996 RMK A01 T00141099  RH  043%=      5-min Rain = 0
KCO1 201107Z 24010KT 01/M10 A2996 RMK A01 T00141099  RH  043%=      5-min Rain = 0
KCO1 201108Z 23011KT 01/M10 A2996 RMK A01 T00141100  RH  042%=      5-min Rain = 0
KCO1 201109Z 23010KT 01/M10 A2996 RMK A01 T00141100  RH  042%=      5-min Rain = 0
KCO1 201110Z 23011KT 02/M10 A2995 RMK A01 T00151100  RH  042%=      5-min Rain = 0
KCO1 201111Z 23010KT 02/M10 A2995 RMK A01 T00161100  RH  042%=      5-min Rain = 0
KCO1 201112Z 23010KT 02/M10 A2995 RMK A01 T00161100  RH  042%=      5-min Rain = 0
KCO1 201113Z 24011KT 02/M10 A2995 RMK A01 T00171100  RH  042%=      5-min Rain = 0
KCO1 201114Z 24011KT 02/M10 A2995 RMK A01 T00181099  RH  041%=      5-min Rain = 0
KCO1 201115Z 25010KT 02/M10 A2995 RMK A01 T00211098  RH  041%=      5-min Rain = 0
KCO1 201116Z 25010KT 02/M10 A2995 RMK A01 T00221099  RH  040%=      5-min Rain = 0
KCO1 201117Z 24012KT 02/M10 A2995 RMK A01 T00241099  RH  040%=      5-min Rain = 0
KCO1 201118Z 25010KT 03/M10 A2995 RMK A01 T00251100  RH  039%=      5-min Rain = 0
KCO1 201119Z 25011KT 03/M10 A2995 RMK A01 T00261100  RH  039%=      5-min Rain = 0
KCO1 201120Z 24010KT 02/M10 A2995 RMK A01 T00241102  RH  039%=      5-min Rain = 0
KCO1 201121Z 24011KT 02/M10 A2995 RMK A01 T00231102  RH  039%=      5-min Rain = 0
KCO1 201122Z 24011KT 02/M10 A2996 RMK A01 T00221102  RH  039%=      5-min Rain = 0
KCO1 201123Z 24009KT 02/M10 A2996 RMK A01 T00211103  RH  039%=      5-min Rain = 0
KCO1 201124Z 24010KT 02/M10 A2996 RMK A01 T00201103  RH  040%=      5-min Rain = 0
KCO1 201125Z 24010KT 02/M10 A2996 RMK A01 T00201103  RH  040%=      5-min Rain = 0
KCO1 201126Z 24010KT 02/M10 A2996 RMK A01 T00191103  RH  040%=      5-min Rain = 0
KCO1 201127Z 24010KT 02/M10 A2996 RMK A01 T00201102  RH  040%=      5-min Rain = 0
KCO1 201128Z 24010KT 02/M10 A2996 RMK A01 T00201103  RH  040%=      5-min Rain = 0
KCO1 201129Z 24010KT 02/M10 A2996 RMK A01 T00211103  RH  039%=      5-min Rain = 0
KCO1 201130Z 24009KT 02/M10 A2996 RMK A01 T00221103  RH  039%=      5-min Rain = 0
KCO1 201131Z 23007KT 02/M10 A2996 RMK A01 T00221103  RH  039%=      5-min Rain = 0
KCO1 201132Z 23009KT 02/M11 A2996 RMK A01 T00191105  RH  039%=      5-min Rain = 0
KCO1 201133Z 23009KT 01/M11 A2996 RMK A01 T00141106  RH  040%=      5-min Rain = 0
KCO1 201134Z 23010KT 01/M11 A2996 RMK A01 T00111106  RH  041%=      5-min Rain = 0
KCO1 201135Z 22009KT 01/M11 A2996 RMK A01 T00091105  RH  042%=      5-min Rain = 0
KCO1 201136Z 23009KT 01/M11 A2996 RMK A01 T00071105  RH  043%=      5-min Rain = 0
KCO1 201137Z 22009KT 01/M11 A2996 RMK A01 T00061105  RH  043%=      5-min Rain = 0
KCO1 201138Z 22009KT 01/M10 A2996 RMK A01 T00051104  RH  044%=      5-min Rain = 0
KCO1 201139Z 22009KT 00/M10 A2996 RMK A01 T00041104  RH  044%=      5-min Rain = 0
KCO1 201140Z 22009KT 00/M10 A2996 RMK A01 T00031104  RH  044%=      5-min Rain = 0
KCO1 201141Z 22009KT 00/M10 A2996 RMK A01 T00031104  RH  045%=      5-min Rain = 0
KCO1 201142Z 22009KT 00/M10 A2996 RMK A01 T00031104  RH  045%=      5-min Rain = 0
KCO1 201143Z 23008KT 00/M10 A2996 RMK A01 T00031104  RH  045%=      5-min Rain = 0
KCO1 201144Z 22007KT 00/M10 A2996 RMK A01 T00031103  RH  045%=      5-min Rain = 0
KCO1 201145Z 22007KT 00/M10 A2996 RMK A01 T00031103  RH  045%=      5-min Rain = 0
KCO1 201146Z 22007KT 00/M10 A2996 RMK A01 T00021104  RH  045%=      5-min Rain = 0
KCO1 201147Z 22007KT 00/M10 A2996 RMK A01 T00011104  RH  045%=      5-min Rain = 0
KCO1 201148Z 21007KT 00/10 A2996 RMK A01 T00-00-104  RH  045%=      5-min Rain = 0
KCO1 201149Z 22007KT M00/M10 A2995 RMK A01 T10011104  RH  046%=      5-min Rain = 0
KCO1 201150Z 22008KT M00/M10 A2996 RMK A01 T10011104  RH  046%=      5-min Rain = 0
KCO1 201151Z 22007KT M00/M10 A2996 RMK A01 T10011104  RH  046%=      5-min Rain = 0
KCO1 201152Z 22007KT M00/M10 A2996 RMK A01 T10011104  RH  046%=      5-min Rain = 0
KCO1 201153Z 22007KT 00/10 A2996 RMK A01 T00000-103  RH  046%=      5-min Rain = 0
KCO1 201154Z 21007KT 00/M10 A2996 RMK A01 T00011103  RH  045%=      5-min Rain = 0
KCO1 201155Z 21008KT 00/M10 A2996 RMK A01 T00021103  RH  045%=      5-min Rain = 0
KCO1 201156Z 21007KT 00/M10 A2996 RMK A01 T00031104  RH  045%=      5-min Rain = 0
KCO1 201157Z 21007KT 00/M10 A2996 RMK A01 T00041103  RH  044%=      5-min Rain = 0
KCO1 201158Z 21006KT 01/M10 A2996 RMK A01 T00051104  RH  044%=      5-min Rain = 0
KCO1 201159Z 21006KT 01/M10 A2996 RMK A01 T00051104  RH  044%=      5-min Rain = 0
KCO1 201200Z 21006KT 01/M10 A2996 RMK A01 T00051104  RH  044%=      5-min Rain = 0
KCO1 201201Z 21006KT 01/M10 A2996 RMK A01 T00051104  RH  044%=      5-min Rain = 0
KCO1 201202Z 21006KT 00/M11 A2996 RMK A01 T00041105  RH  044%=      5-min Rain = 0
KCO1 201203Z 20006KT 00/M11 A2996 RMK A01 T00021106  RH  044%=      5-min Rain = 0
KCO1 201204Z 20007KT 00/M11 A2997 RMK A01 T00021105  RH  045%=      5-min Rain = 0
KCO1 201205Z 20007KT 00/M11 A2997 RMK A01 T00011105  RH  045%=      5-min Rain = 0
KCO1 201206Z 20007KT 00/11 A2997 RMK A01 T00000-105  RH  045%=      5-min Rain = 0
KCO1 201207Z 20007KT M00/M11 A2997 RMK A01 T10011105  RH  045%=      5-min Rain = 0
KCO1 201208Z 21007KT M00/M11 A2997 RMK A01 T10011105  RH  045%=      5-min Rain = 0
KCO1 201209Z 20007KT M00/M11 A2997 RMK A01 T10021105  RH  046%=      5-min Rain = 0
KCO1 201210Z 20007KT M00/M11 A2997 RMK A01 T10021105  RH  046%=      5-min Rain = 0
KCO1 201211Z 21007KT M00/M11 A2997 RMK A01 T10031105  RH  046%=      5-min Rain = 0
KCO1 201212Z 20007KT M00/M11 A2997 RMK A01 T10031105  RH  046%=      5-min Rain = 0
KCO1 201213Z 20007KT M00/M11 A2997 RMK A01 T10031105  RH  046%=      5-min Rain = 0
KCO1 201214Z 20007KT M00/M11 A2997 RMK A01 T10031105  RH  046%=      5-min Rain = 0
KCO1 201215Z 20006KT M00/M10 A2997 RMK A01 T10031104  RH  046%=      5-min Rain = 0
KCO1 201216Z 21006KT M00/M10 A2997 RMK A01 T10031104  RH  046%=      5-min Rain = 0
KCO1 201217Z 21005KT M00/M10 A2997 RMK A01 T10031104  RH  047%=      5-min Rain = 0
KCO1 201218Z 21005KT M00/M10 A2997 RMK A01 T10031104  RH  047%=      5-min Rain = 0
KCO1 201219Z 21005KT M00/M10 A2997 RMK A01 T10031104  RH  047%=      5-min Rain = 0
KCO1 201220Z 21006KT M00/M10 A2997 RMK A01 T10031104  RH  046%=      5-min Rain = 0
KCO1 201221Z 21006KT M00/M10 A2997 RMK A01 T10021104  RH  046%=      5-min Rain = 0
KCO1 201222Z 21006KT M00/M11 A2997 RMK A01 T10031105  RH  046%=      5-min Rain = 0
KCO1 201223Z 21006KT M00/M10 A2997 RMK A01 T10031104  RH  046%=      5-min Rain = 0
KCO1 201224Z 21006KT M00/M10 A2997 RMK A01 T10031104  RH  046%=      5-min Rain = 0
KCO1 201225Z 21006KT M00/M10 A2997 RMK A01 T10031104  RH  046%=      5-min Rain = 0
KCO1 201226Z 21006KT M00/M10 A2997 RMK A01 T10031104  RH  046%=      5-min Rain = 0
KCO1 201227Z 21006KT M00/M10 A2997 RMK A01 T10031104  RH  046%=      5-min Rain = 0
KCO1 201228Z 21006KT M00/M10 A2997 RMK A01 T10031104  RH  046%=      5-min Rain = 0
KCO1 201229Z 21005KT M00/M10 A2997 RMK A01 T10031104  RH  046%=      5-min Rain = 0
KCO1 201230Z 21005KT M01/M11 A2997 RMK A01 T10051105  RH  046%=      5-min Rain = 0
KCO1 201231Z 20006KT M01/M11 A2997 RMK A01 T10071106  RH  047%=      5-min Rain = 0
KCO1 201232Z 20005KT M01/M11 A2997 RMK A01 T10081105  RH  048%=      5-min Rain = 0
KCO1 201233Z 20005KT M01/M11 A2996 RMK A01 T10081105  RH  048%=      5-min Rain = 0
KCO1 201234Z 20005KT M01/M10 A2996 RMK A01 T10081104  RH  048%=      5-min Rain = 0
KCO1 201235Z 20006KT M01/M10 A2996 RMK A01 T10081104  RH  048%=      5-min Rain = 0
KCO1 201236Z 20006KT M01/M10 A2996 RMK A01 T10081104  RH  048%=      5-min Rain = 0
KCO1 201237Z 20007KT M01/M10 A2996 RMK A01 T10091104  RH  048%=      5-min Rain = 0
KCO1 201238Z 20007KT M01/M11 A2996 RMK A01 T10101105  RH  049%=      5-min Rain = 0
KCO1 201239Z 20007KT M01/M11 A2996 RMK A01 T10111105  RH  049%=      5-min Rain = 0
KCO1 201240Z 20007KT M01/M10 A2996 RMK A01 T10101104  RH  049%=      5-min Rain = 0
KCO1 201241Z 20007KT M01/M10 A2996 RMK A01 T10091103  RH  049%=      5-min Rain = 0
KCO1 201242Z 20007KT M01/M10 A2996 RMK A01 T10091103  RH  049%=      5-min Rain = 0
KCO1 201243Z 21006KT M01/M10 A2997 RMK A01 T10091103  RH  049%=      5-min Rain = 0
KCO1 201244Z 20006KT M01/M10 A2997 RMK A01 T10081103  RH  049%=      5-min Rain = 0
KCO1 201245Z 21007KT M01/M10 A2997 RMK A01 T10061102  RH  048%=      5-min Rain = 0
KCO1 201246Z 21006KT M00/M10 A2997 RMK A01 T10041102  RH  048%=      5-min Rain = 0
KCO1 201247Z 21007KT M00/M10 A2997 RMK A01 T10041103  RH  047%=      5-min Rain = 0
KCO1 201248Z 21007KT M00/M10 A2997 RMK A01 T10031103  RH  047%=      5-min Rain = 0
KCO1 201249Z 21007KT M00/M10 A2997 RMK A01 T10031104  RH  047%=      5-min Rain = 0
KCO1 201250Z 21007KT M00/M10 A2997 RMK A01 T10041104  RH  047%=      5-min Rain = 0
KCO1 201251Z 22007KT M01/M11 A2997 RMK A01 T10051105  RH  047%=      5-min Rain = 0
KCO1 201252Z 22007KT M01/M10 A2997 RMK A01 T10061104  RH  047%=      5-min Rain = 0
KCO1 201253Z 22007KT M01/M11 A2997 RMK A01 T10071105  RH  047%=      5-min Rain = 0
KCO1 201254Z 22007KT M01/M11 A2997 RMK A01 T10091106  RH  048%=      5-min Rain = 0
KCO1 201255Z 22008KT M01/M11 A2997 RMK A01 T10101106  RH  048%=      5-min Rain = 0
KCO1 201256Z 22008KT M01/M11 A2997 RMK A01 T10101105  RH  049%=      5-min Rain = 0
KCO1 201257Z 22008KT M01/M11 A2997 RMK A01 T10121106  RH  049%=      5-min Rain = 0
KCO1 201258Z 23008KT M01/M11 A2997 RMK A01 T10121105  RH  049%=      5-min Rain = 0
KCO1 201259Z 23008KT M01/M10 A2997 RMK A01 T10121104  RH  049%=      5-min Rain = 0
KCO1 201300Z 23009KT M01/M10 A2997 RMK A01 T10111104  RH  050%=      5-min Rain = 0
KCO1 201301Z 23009KT M01/M10 A2997 RMK A01 T10101103  RH  049%=      5-min Rain = 0
KCO1 201302Z 23009KT M01/M10 A2997 RMK A01 T10111104  RH  049%=      5-min Rain = 0
KCO1 201303Z 23009KT M01/M10 A2997 RMK A01 T10111104  RH  049%=      5-min Rain = 0
KCO1 201304Z 23009KT M01/M10 A2997 RMK A01 T10101104  RH  049%=      5-min Rain = 0
KCO1 201305Z 23009KT M01/M10 A2997 RMK A01 T10091104  RH  049%=      5-min Rain = 0
KCO1 201306Z 22008KT M01/M10 A2997 RMK A01 T10081104  RH  048%=      5-min Rain = 0
KCO1 201307Z 23008KT M01/M10 A2997 RMK A01 T10081104  RH  048%=      5-min Rain = 0
KCO1 201308Z 23008KT M01/M11 A2997 RMK A01 T10081105  RH  048%=      5-min Rain = 0
KCO1 201309Z 22007KT M01/M11 A2997 RMK A01 T10081105  RH  048%=      5-min Rain = 0
KCO1 201310Z 22007KT M01/M11 A2997 RMK A01 T10081105  RH  048%=      5-min Rain = 0
KCO1 201311Z 21008KT M01/M11 A2997 RMK A01 T10081105  RH  048%=      5-min Rain = 0
KCO1 201312Z 21006KT M01/M11 A2997 RMK A01 T10091105  RH  048%=      5-min Rain = 0
KCO1 201313Z 21005KT M01/M11 A2997 RMK A01 T10091105  RH  048%=      5-min Rain = 0
KCO1 201314Z 21004KT M01/M11 A2998 RMK A01 T10101105  RH  049%=      5-min Rain = 0
KCO1 201315Z 20003KT M01/M11 A2998 RMK A01 T10111105  RH  049%=      5-min Rain = 0
KCO1 201316Z 19003KT M01/M10 A2998 RMK A01 T10111104  RH  049%=      5-min Rain = 0
KCO1 201317Z 20003KT M01/M10 A2998 RMK A01 T10111103  RH  049%=      5-min Rain = 0
KCO1 201318Z 19004KT M01/M10 A2998 RMK A01 T10111103  RH  050%=      5-min Rain = 0
KCO1 201319Z 17004KT M01/M10 A2998 RMK A01 T10111102  RH  050%=      5-min Rain = 0
KCO1 201320Z 17003KT M01/M10 A2998 RMK A01 T10111103  RH  050%=      5-min Rain = 0
KCO1 201321Z 16004KT M01/M10 A2998 RMK A01 T10121104  RH  050%=      5-min Rain = 0
KCO1 201322Z 15005KT M01/M10 A2998 RMK A01 T10131104  RH  050%=      5-min Rain = 0
KCO1 201323Z 15006KT M02/M11 A2998 RMK A01 T10151105  RH  050%=      5-min Rain = 0
KCO1 201324Z 17007KT M02/M10 A2998 RMK A01 T10171104  RH  051%=      5-min Rain = 0
KCO1 201325Z 17006KT M02/M10 A2998 RMK A01 T10171101  RH  053%=      5-min Rain = 0
KCO1 201326Z 17006KT M02/M10 A2998 RMK A01 T10171099  RH  054%=      5-min Rain = 0
KCO1 201327Z 17006KT M02/M10 A2998 RMK A01 T10181098  RH  054%=      5-min Rain = 0
KCO1 201328Z 17006KT M02/M10 A2998 RMK A01 T10191098  RH  055%=      5-min Rain = 0
KCO1 201329Z 17006KT M02/M10 A2998 RMK A01 T10201098  RH  055%=      5-min Rain = 0
KCO1 201330Z 17007KT M02/M10 A2998 RMK A01 T10211097  RH  056%=      5-min Rain = 0
KCO1 201331Z 17006KT M02/M10 A2998 RMK A01 T10211097  RH  056%=      5-min Rain = 0
KCO1 201332Z 17006KT M02/M10 A2998 RMK A01 T10221096  RH  057%=      5-min Rain = 0
KCO1 201333Z 18006KT M02/M10 A2998 RMK A01 T10221096  RH  057%=      5-min Rain = 0
KCO1 201334Z 17006KT M02/M10 A2998 RMK A01 T10221095  RH  057%=      5-min Rain = 0
KCO1 201335Z 17006KT M02/M09 A2998 RMK A01 T10221094  RH  058%=      5-min Rain = 0
KCO1 201336Z 18006KT M02/M09 A2998 RMK A01 T10231094  RH  058%=      5-min Rain = 0
KCO1 201337Z 17006KT M02/M09 A2998 RMK A01 T10231094  RH  058%=      5-min Rain = 0
KCO1 201338Z 17007KT M02/M09 A2998 RMK A01 T10221093  RH  058%=      5-min Rain = 0
KCO1 201339Z 17007KT M02/M09 A2998 RMK A01 T10231093  RH  059%=      5-min Rain = 0
KCO1 201340Z 17007KT M02/M09 A2998 RMK A01 T10221092  RH  059%=      5-min Rain = 0
KCO1 201341Z 17007KT M02/M09 A2998 RMK A01 T10221090  RH  059%=      5-min Rain = 0
KCO1 201342Z 17007KT M02/M09 A2998 RMK A01 T10211089  RH  060%=      5-min Rain = 0
KCO1 201343Z 18008KT M02/M09 A2998 RMK A01 T10201088  RH  060%=      5-min Rain = 0
KCO1 201344Z 17007KT M02/M09 A2998 RMK A01 T10191087  RH  060%=      5-min Rain = 0
KCO1 201345Z 18007KT M02/M09 A2998 RMK A01 T10191087  RH  060%=      5-min Rain = 0
KCO1 201346Z 18006KT M02/M09 A2998 RMK A01 T10181086  RH  060%=      5-min Rain = 0
KCO1 201347Z 18006KT M02/M09 A2998 RMK A01 T10181086  RH  059%=      5-min Rain = 0
KCO1 201348Z 18005KT M02/M09 A2998 RMK A01 T10171086  RH  059%=      5-min Rain = 0
KCO1 201349Z 18006KT M02/M09 A2998 RMK A01 T10161086  RH  059%=      5-min Rain = 0
KCO1 201350Z 18007KT M02/M09 A2998 RMK A01 T10151085  RH  059%=      5-min Rain = 0
KCO1 201351Z 18007KT M01/M09 A2998 RMK A01 T10141085  RH  058%=      5-min Rain = 0
KCO1 201352Z 19006KT M01/M09 A2998 RMK A01 T10131085  RH  058%=      5-min Rain = 0
KCO1 201353Z 19006KT M01/M08 A2998 RMK A01 T10131084  RH  058%=      5-min Rain = 0
KCO1 201354Z 18005KT M01/M08 A2998 RMK A01 T10111084  RH  058%=      5-min Rain = 0
KCO1 201355Z 19005KT M01/M08 A2998 RMK A01 T10111084  RH  058%=      5-min Rain = 0
KCO1 201356Z 18005KT M01/M08 A2998 RMK A01 T10101084  RH  057%=      5-min Rain = 0
KCO1 201357Z 19004KT M01/M08 A2998 RMK A01 T10091083  RH  057%=      5-min Rain = 0
KCO1 201358Z 20005KT M01/M08 A2998 RMK A01 T10081083  RH  057%=      5-min Rain = 0
KCO1 201359Z 20004KT M01/M08 A2998 RMK A01 T10061083  RH  056%=      5-min Rain = 0
KCO1 201400Z 20004KT M01/M08 A2998 RMK A01 T10051082  RH  056%=      5-min Rain = 0
KCO1 201401Z 20005KT M00/M08 A2998 RMK A01 T10031082  RH  055%=      5-min Rain = 0
KCO1 201402Z 22004KT M00/M08 A2998 RMK A01 T10011081  RH  055%=      5-min Rain = 0
KCO1 201403Z 20004KT 00/08 A2998 RMK A01 T00-00-81  RH  055%=      5-min Rain = 0
KCO1 201404Z 20006KT 00/M08 A2998 RMK A01 T00011080  RH  054%=      5-min Rain = 0
KCO1 201405Z 20006KT 00/M08 A2998 RMK A01 T00041079  RH  054%=      5-min Rain = 0
KCO1 201406Z 20007KT 01/M08 A2997 RMK A01 T00061079  RH  053%=      5-min Rain = 0
KCO1 201407Z 20007KT 01/M08 A2997 RMK A01 T00071079  RH  053%=      5-min Rain = 0
KCO1 201408Z 20007KT 01/M08 A2997 RMK A01 T00091080  RH  052%=      5-min Rain = 0
KCO1 201409Z 20006KT 01/M08 A2998 RMK A01 T00111079  RH  051%=      5-min Rain = 0
KCO1 201410Z 20006KT 01/M08 A2998 RMK A01 T00121079  RH  051%=      5-min Rain = 0
KCO1 201411Z 21005KT 01/M08 A2998 RMK A01 T00121080  RH  050%=      5-min Rain = 0
KCO1 201412Z 20005KT 01/M08 A2998 RMK A01 T00131080  RH  050%=      5-min Rain = 0
KCO1 201413Z 21005KT 01/M08 A2998 RMK A01 T00141081  RH  049%=      5-min Rain = 0
KCO1 201414Z 21004KT 02/M08 A2998 RMK A01 T00151082  RH  049%=      5-min Rain = 0
KCO1 201415Z 21004KT 02/M08 A2998 RMK A01 T00161082  RH  048%=      5-min Rain = 0
KCO1 201416Z 20005KT 02/M08 A2998 RMK A01 T00161083  RH  048%=      5-min Rain = 0
KCO1 201417Z 19004KT 02/M08 A2998 RMK A01 T00171082  RH  048%=      5-min Rain = 0
KCO1 201418Z 20004KT 02/M08 A2998 RMK A01 T00181081  RH  048%=      5-min Rain = 0
KCO1 201419Z 20003KT 02/M08 A2998 RMK A01 T00191080  RH  048%=      5-min Rain = 0
KCO1 201420Z 20003KT 02/M08 A2998 RMK A01 T00211079  RH  048%=      5-min Rain = 0
KCO1 201421Z 20003KT 02/M08 A2998 RMK A01 T00221080  RH  047%=      5-min Rain = 0
KCO1 201422Z 21003KT 02/M08 A2999 RMK A01 T00231080  RH  047%=      5-min Rain = 0
KCO1 201423Z 20003KT 02/M08 A2999 RMK A01 T00231080  RH  046%=      5-min Rain = 0
KCO1 201424Z 20004KT 02/M08 A2998 RMK A01 T00241080  RH  046%=      5-min Rain = 0
KCO1 201425Z 19005KT 02/M08 A2998 RMK A01 T00241082  RH  045%=      5-min Rain = 0
KCO1 201426Z 18004KT 02/M08 A2998 RMK A01 T00241083  RH  045%=      5-min Rain = 0
KCO1 201427Z 18004KT 02/M08 A2999 RMK A01 T00241083  RH  045%=      5-min Rain = 0
KCO1 201428Z 19003KT 02/M08 A2999 RMK A01 T00241081  RH  046%=      5-min Rain = 0
KCO1 201429Z 18004KT 02/M08 A2999 RMK A01 T00241080  RH  046%=      5-min Rain = 0
KCO1 201430Z 19005KT 02/M08 A2999 RMK A01 T00241081  RH  046%=      5-min Rain = 0
KCO1 201431Z 18005KT 02/M08 A2999 RMK A01 T00241082  RH  045%=      5-min Rain = 0
KCO1 201432Z 17004KT 02/M08 A2999 RMK A01 T00241083  RH  045%=      5-min Rain = 0
KCO1 201433Z 15004KT 02/M08 A2999 RMK A01 T00241081  RH  046%=      5-min Rain = 0
KCO1 201434Z 16004KT 03/M08 A2999 RMK A01 T00251080  RH  046%=      5-min Rain = 0
KCO1 201435Z 15004KT 03/M08 A2999 RMK A01 T00271080  RH  045%=      5-min Rain = 0
KCO1 201436Z 15005KT 03/M08 A2999 RMK A01 T00291079  RH  045%=      5-min Rain = 0
KCO1 201437Z 16005KT 03/M08 A2999 RMK A01 T00301079  RH  044%=      5-min Rain = 0
KCO1 201438Z 18005KT 03/M08 A2999 RMK A01 T00311080  RH  044%=      5-min Rain = 0
KCO1 201439Z 18005KT 03/M08 A2999 RMK A01 T00321079  RH  044%=      5-min Rain = 0
KCO1 201440Z 17005KT 03/M08 A2999 RMK A01 T00321080  RH  044%=      5-min Rain = 0
KCO1 201441Z 18005KT 03/M08 A2999 RMK A01 T00331080  RH  044%=      5-min Rain = 0
KCO1 201442Z 18005KT 03/M08 A2999 RMK A01 T00331079  RH  044%=      5-min Rain = 0
KCO1 201443Z 18005KT 03/M08 A2999 RMK A01 T00331079  RH  044%=      5-min Rain = 0
KCO1 201444Z 18006KT 03/M08 A2999 RMK A01 T00341078  RH  044%=      5-min Rain = 0
KCO1 201445Z 17005KT 04/M08 A2999 RMK A01 T00351077  RH  044%=      5-min Rain = 0
KCO1 201446Z 17005KT 04/M08 A2999 RMK A01 T00361077  RH  043%=      5-min Rain = 0
KCO1 201447Z 18005KT 04/M08 A2999 RMK A01 T00371077  RH  043%=      5-min Rain = 0
KCO1 201448Z 18005KT 04/M08 A2999 RMK A01 T00371076  RH  043%=      5-min Rain = 0
KCO1 201449Z 18007KT 04/M08 A2999 RMK A01 T00391075  RH  043%=      5-min Rain = 0
KCO1 201450Z 18007KT 04/M08 A2999 RMK A01 T00401078  RH  042%=      5-min Rain = 0
KCO1 201451Z 18006KT 04/M08 A2999 RMK A01 T00401079  RH  041%=      5-min Rain = 0
KCO1 201452Z 18006KT 04/M08 A2999 RMK A01 T00401078  RH  042%=      5-min Rain = 0
KCO1 201453Z 19007KT 04/M08 A2999 RMK A01 T00411078  RH  042%=      5-min Rain = 0
KCO1 201454Z 19006KT 04/M08 A2999 RMK A01 T00421078  RH  041%=      5-min Rain = 0
KCO1 201455Z 18006KT 04/M08 A2999 RMK A01 T00421078  RH  041%=      5-min Rain = 0
KCO1 201456Z 19006KT 04/M08 A2999 RMK A01 T00431078  RH  041%=      5-min Rain = 0
KCO1 201457Z 19006KT 05/M08 A2999 RMK A01 T00451076  RH  041%=      5-min Rain = 0
KCO1 201458Z 19005KT 05/M08 A2999 RMK A01 T00471075  RH  041%=      5-min Rain = 0
KCO1 201459Z 18006KT 05/M08 A2999 RMK A01 T00491075  RH  040%=      5-min Rain = 0
KCO1 201500Z 18006KT 05/M08 A2999 RMK A01 T00491077  RH  040%=      5-min Rain = 0
KCO1 201501Z 19007KT 05/M08 A2999 RMK A01 T00471079  RH  040%=      5-min Rain = 0
KCO1 201502Z 19006KT 05/M08 A2999 RMK A01 T00471080  RH  039%=      5-min Rain = 0
KCO1 201503Z 19006KT 05/M08 A2999 RMK A01 T00471080  RH  039%=      5-min Rain = 0
KCO1 201504Z 19006KT 05/M08 A2999 RMK A01 T00481079  RH  039%=      5-min Rain = 0
KCO1 201505Z 20004KT 05/M08 A2999 RMK A01 T00481078  RH  039%=      5-min Rain = 0
KCO1 201506Z 21005KT 05/M08 A2999 RMK A01 T00491078  RH  039%=      5-min Rain = 0
KCO1 201507Z 21004KT 05/M08 A2999 RMK A01 T00501078  RH  039%=      5-min Rain = 0
KCO1 201508Z 21006KT 05/M08 A2999 RMK A01 T00511078  RH  039%=      5-min Rain = 0
KCO1 201509Z 21005KT 05/M08 A2999 RMK A01 T00511079  RH  038%=      5-min Rain = 0
KCO1 201510Z 19004KT 05/M08 A2999 RMK A01 T00521079  RH  038%=      5-min Rain = 0
KCO1 201511Z 21005KT 05/M08 A2999 RMK A01 T00531077  RH  038%=      5-min Rain = 0
KCO1 201512Z 20004KT 05/M08 A30 RMK A01 T00541079  RH  038%=      5-min Rain = 0
KCO1 201513Z 20004KT 06/M08 A30 RMK A01 T00551080  RH  037%=      5-min Rain = 0
KCO1 201514Z 21004KT 06/M08 A30 RMK A01 T00571078  RH  037%=      5-min Rain = 0
KCO1 201515Z 20004KT 06/M08 A30 RMK A01 T00581079  RH  037%=      5-min Rain = 0
KCO1 201516Z 21004KT 06/M08 A30 RMK A01 T00591080  RH  036%=      5-min Rain = 0
KCO1 201517Z 21004KT 06/M08 A30 RMK A01 T00591081  RH  036%=      5-min Rain = 0
KCO1 201518Z 21004KT 06/M08 A30 RMK A01 T00601081  RH  036%=      5-min Rain = 0
KCO1 201519Z 20005KT 06/M08 A30 RMK A01 T00611083  RH  035%=      5-min Rain = 0
KCO1 201520Z 21004KT 06/M08 A30 RMK A01 T00611084  RH  035%=      5-min Rain = 0
KCO1 201521Z 20003KT 06/M09 A30 RMK A01 T00611085  RH  034%=      5-min Rain = 0
KCO1 201522Z 21003KT 06/M09 A30 RMK A01 T00611085  RH  034%=      5-min Rain = 0
KCO1 201523Z 18003KT 06/M08 A30 RMK A01 T00611084  RH  035%=      5-min Rain = 0
KCO1 201524Z 17003KT 06/M08 A30 RMK A01 T00621083  RH  035%=      5-min Rain = 0
KCO1 201525Z 17003KT 06/M08 A30 RMK A01 T00631084  RH  034%=      5-min Rain = 0
KCO1 201526Z 17003KT 06/M08 A30 RMK A01 T00631084  RH  034%=      5-min Rain = 0
KCO1 201527Z 17003KT 06/M08 A30 RMK A01 T00641082  RH  034%=      5-min Rain = 0
KCO1 201528Z 17003KT 07/M08 A30 RMK A01 T00651082  RH  034%=      5-min Rain = 0
KCO1 201529Z 17003KT 07/M08 A30 RMK A01 T00661083  RH  034%=      5-min Rain = 0
KCO1 201530Z 16003KT 07/M08 A30 RMK A01 T00671083  RH  033%=      5-min Rain = 0
KCO1 201531Z 16003KT 07/M08 A30 RMK A01 T00681081  RH  033%=      5-min Rain = 0
KCO1 201532Z 18002KT 07/M08 A30 RMK A01 T00691082  RH  033%=      5-min Rain = 0
KCO1 201533Z 15002KT 07/M08 A30 RMK A01 T00701081  RH  033%=      5-min Rain = 0
KCO1 201534Z 16003KT 07/M08 A30 RMK A01 T00711081  RH  033%=      5-min Rain = 0
KCO1 201535Z 15003KT 07/M08 A30 RMK A01 T00721081  RH  033%=      5-min Rain = 0
KCO1 201536Z 15003KT 07/M08 A3001 RMK A01 T00721079  RH  033%=      5-min Rain = 0
KCO1 201537Z 15004KT 07/M08 A3001 RMK A01 T00721079  RH  033%=      5-min Rain = 0
KCO1 201538Z 16005KT 07/M08 A30 RMK A01 T00721079  RH  033%=      5-min Rain = 0
KCO1 201539Z 15005KT 07/M08 A30 RMK A01 T00711079  RH  034%=      5-min Rain = 0
KCO1 201540Z 15005KT 07/M08 A30 RMK A01 T00701079  RH  034%=      5-min Rain = 0
KCO1 201541Z 15004KT 07/M08 A30 RMK A01 T00691078  RH  034%=      5-min Rain = 0
KCO1 201542Z 16005KT 07/M08 A30 RMK A01 T00701078  RH  034%=      5-min Rain = 0
KCO1 201543Z 16005KT 07/M08 A30 RMK A01 T00711078  RH  034%=      5-min Rain = 0
KCO1 201544Z 16006KT 07/M08 A30 RMK A01 T00731077  RH  034%=      5-min Rain = 0
KCO1 201545Z 15005KT 07/M08 A30 RMK A01 T00731079  RH  033%=      5-min Rain = 0
KCO1 201546Z 17003KT 07/M08 A30 RMK A01 T00731079  RH  033%=      5-min Rain = 0
KCO1 201547Z 18004KT 07/M08 A30 RMK A01 T00741079  RH  033%=      5-min Rain = 0
KCO1 201548Z 18003KT 07/M08 A30 RMK A01 T00741080  RH  033%=      5-min Rain = 0
KCO1 201549Z 18004KT 08/M08 A30 RMK A01 T00751079  RH  032%=      5-min Rain = 0
KCO1 201550Z 17005KT 08/M08 A30 RMK A01 T00761079  RH  032%=      5-min Rain = 0
KCO1 201551Z 17006KT 08/M08 A30 RMK A01 T00771079  RH  032%=      5-min Rain = 0
KCO1 201552Z 17005KT 08/M08 A30 RMK A01 T00791079  RH  032%=      5-min Rain = 0
KCO1 201553Z 18005KT 08/M08 A30 RMK A01 T00791082  RH  031%=      5-min Rain = 0
KCO1 201554Z 17004KT 08/M09 A30 RMK A01 T00801085  RH  030%=      5-min Rain = 0
KCO1 201555Z 18004KT 08/M09 A30 RMK A01 T00801085  RH  030%=      5-min Rain = 0
KCO1 201556Z 19005KT 08/M09 A30 RMK A01 T00811086  RH  030%=      5-min Rain = 0
KCO1 201557Z 22006KT 08/M09 A30 RMK A01 T00831088  RH  029%=      5-min Rain = 0
KCO1 201558Z 24004KT 08/M09 A30 RMK A01 T00831091  RH  028%=      5-min Rain = 0
KCO1 201559Z 25004KT 08/M09 A30 RMK A01 T00821092  RH  028%=      5-min Rain = 0
KCO1 201600Z 21004KT 08/M09 A30 RMK A01 T00821089  RH  029%=      5-min Rain = 0
KCO1 201601Z 19003KT 08/M09 A30 RMK A01 T00841087  RH  029%=      5-min Rain = 0
KCO1 201602Z 25002KT 09/M09 A30 RMK A01 T00851088  RH  028%=      5-min Rain = 0
KCO1 201603Z 27004KT 09/M09 A30 RMK A01 T00861091  RH  028%=      5-min Rain = 0
KCO1 201604Z 30005KT 09/M10 A30 RMK A01 T00871100  RH  025%=      5-min Rain = 0
KCO1 201605Z 30005KT 09/M11 A30 RMK A01 T00871107  RH  024%=      5-min Rain = 0
KCO1 201606Z 28005KT 09/M11 A30 RMK A01 T00871108  RH  024%=      5-min Rain = 0
KCO1 201607Z 25003KT 09/M11 A30 RMK A01 T00881106  RH  024%=      5-min Rain = 0
KCO1 201608Z 22004KT 09/M10 A30 RMK A01 T00891097  RH  026%=      5-min Rain = 0
KCO1 201609Z 19004KT 09/M09 A30 RMK A01 T00901092  RH  027%=      5-min Rain = 0
KCO1 201610Z 22004KT 09/M09 A30 RMK A01 T00911093  RH  026%=      5-min Rain = 0
KCO1 201611Z 22002KT 09/M10 A30 RMK A01 T00921098  RH  025%=      5-min Rain = 0
KCO1 201612Z 21003KT 09/M10 A30 RMK A01 T00921101  RH  025%=      5-min Rain = 0
KCO1 201613Z 21002KT 09/M10 A30 RMK A01 T00931099  RH  025%=      5-min Rain = 0
KCO1 201614Z 22003KT 09/M10 A30 RMK A01 T00931100  RH  025%=      5-min Rain = 0
KCO1 201615Z 21004KT 09/M10 A30 RMK A01 T00941096  RH  025%=      5-min Rain = 0
KCO1 201616Z 25005KT 10/M10 A30 RMK A01 T00951098  RH  025%=      5-min Rain = 0
KCO1 201617Z 27005KT 09/M10 A30 RMK A01 T00941104  RH  024%=      5-min Rain = 0
KCO1 201618Z 27004KT 09/M11 A30 RMK A01 T00931109  RH  023%=      5-min Rain = 0
KCO1 201619Z 27003KT 09/M11 A30 RMK A01 T00921111  RH  022%=      5-min Rain = 0
KCO1 201620Z 27003KT 09/M11 A30 RMK A01 T00921112  RH  022%=      5-min Rain = 0
KCO1 201621Z 27007KT 09/M11 A30 RMK A01 T00931109  RH  023%=      5-min Rain = 0
KCO1 201622Z 27007KT 09/M11 A30 RMK A01 T00941111  RH  022%=      5-min Rain = 0
KCO1 201623Z 27006KT 09/M11 A30 RMK A01 T00941112  RH  022%=      5-min Rain = 0
KCO1 201624Z 29006KT 09/M11 A3001 RMK A01 T00931112  RH  022%=      5-min Rain = 0
KCO1 201625Z 29006KT 09/M11 A3001 RMK A01 T00941111  RH  022%=      5-min Rain = 0
KCO1 201626Z 31006KT 09/M11 A3001 RMK A01 T00941114  RH  022%=      5-min Rain = 0
KCO1 201627Z 27005KT 09/M12 A30 RMK A01 T00921116  RH  022%=      5-min Rain = 0
KCO1 201628Z 31005KT 09/M11 A30 RMK A01 T00921113  RH  022%=      5-min Rain = 0
KCO1 201629Z 30007KT 09/M11 A30 RMK A01 T00931112  RH  022%=      5-min Rain = 0
KCO1 201630Z 27008KT 09/M11 A30 RMK A01 T00931112  RH  022%=      5-min Rain = 0
KCO1 201631Z 26006KT 09/M11 A30 RMK A01 T00941111  RH  022%=      5-min Rain = 0
KCO1 201632Z 24004KT 10/M11 A30 RMK A01 T00951110  RH  022%=      5-min Rain = 0
KCO1 201633Z 27006KT 10/M11 A30 RMK A01 T00961109  RH  022%=      5-min Rain = 0
KCO1 201634Z 26009KT 10/M11 A30 RMK A01 T00981108  RH  022%=      5-min Rain = 0
KCO1 201635Z 29006KT 10/M11 A30 RMK A01 T00961112  RH  022%=      5-min Rain = 0
KCO1 201636Z 28007KT 10/M11 A30 RMK A01 T00951110  RH  022%=      5-min Rain = 0
KCO1 201637Z 27007KT 10/M11 A30 RMK A01 T00971108  RH  022%=      5-min Rain = 0
KCO1 201638Z 28006KT 10/M11 A30 RMK A01 T00981106  RH  023%=      5-min Rain = 0
KCO1 201639Z 28005KT 10/M11 A30 RMK A01 T01001107  RH  022%=      5-min Rain = 0
KCO1 201640Z 27004KT 10/M11 A30 RMK A01 T01001109  RH  022%=      5-min Rain = 0
KCO1 201641Z 28005KT 10/M11 A30 RMK A01 T01001108  RH  022%=      5-min Rain = 0
KCO1 201642Z 29006KT 10/M11 A30 RMK A01 T01011106  RH  022%=      5-min Rain = 0
KCO1 201643Z 28004KT 10/M11 A30 RMK A01 T01001110  RH  022%=      5-min Rain = 0
KCO1 201644Z 29003KT 10/M11 A30 RMK A01 T00981108  RH  022%=      5-min Rain = 0
KCO1 201645Z 28003KT 10/M11 A30 RMK A01 T00991108  RH  022%=      5-min Rain = 0
KCO1 201646Z 25002KT 10/M11 A30 RMK A01 T01001108  RH  022%=      5-min Rain = 0
KCO1 201647Z 23004KT 10/M11 A30 RMK A01 T01011108  RH  022%=      5-min Rain = 0
KCO1 201648Z 23004KT 10/M11 A30 RMK A01 T01011108  RH  022%=      5-min Rain = 0
KCO1 201649Z 28006KT 10/M11 A30 RMK A01 T01031106  RH  022%=      5-min Rain = 0
KCO1 201650Z 30006KT 10/M11 A30 RMK A01 T01031107  RH  022%=      5-min Rain = 0
KCO1 201651Z 32007KT 10/M11 A30 RMK A01 T01011109  RH  022%=      5-min Rain = 0
KCO1 201652Z 31005KT 10/M11 A30 RMK A01 T00991110  RH  022%=      5-min Rain = 0
KCO1 201653Z 23005KT 10/M11 A30 RMK A01 T00991107  RH  022%=      5-min Rain = 0
KCO1 201654Z 23006KT 10/M11 A30 RMK A01 T01001106  RH  022%=      5-min Rain = 0
KCO1 201655Z 22005KT 10/M10 A30 RMK A01 T01021104  RH  022%=      5-min Rain = 0
KCO1 201656Z 22007KT 11/M10 A30 RMK A01 T01051102  RH  022%=      5-min Rain = 0
KCO1 201657Z 23005KT 11/M10 A30 RMK A01 T01051104  RH  022%=      5-min Rain = 0
KCO1 201658Z 21006KT 11/M10 A30 RMK A01 T01051103  RH  022%=      5-min Rain = 0
KCO1 201659Z 21005KT 11/M10 A30 RMK A01 T01071102  RH  022%=      5-min Rain = 0
KCO1 201700Z 22005KT 11/M10 A30 RMK A01 T01101098  RH  022%=      5-min Rain = 0
KCO1 201701Z 21004KT 11/M10 A30 RMK A01 T01111101  RH  022%=      5-min Rain = 0
KCO1 201702Z 20004KT 11/M10 A30 RMK A01 T01101104  RH  021%=      5-min Rain = 0
KCO1 201703Z 20002KT 11/M11 A2999 RMK A01 T01081106  RH  021%=      5-min Rain = 0
KCO1 201704Z 24004KT 11/M11 A2999 RMK A01 T01081106  RH  021%=      5-min Rain = 0
KCO1 201705Z 26005KT 11/M11 A2999 RMK A01 T01061105  RH  022%=      5-min Rain = 0
KCO1 201706Z 27004KT 11/M11 A2999 RMK A01 T01061107  RH  021%=      5-min Rain = 0
KCO1 201707Z 31003KT 10/M11 A2999 RMK A01 T01031109  RH  021%=      5-min Rain = 0
KCO1 201708Z 28003KT 10/M11 A2999 RMK A01 T01011109  RH  022%=      5-min Rain = 0
KCO1 201709Z 29004KT 10/M11 A2999 RMK A01 T01021106  RH  022%=      5-min Rain = 0
KCO1 201710Z 26006KT 11/M10 A2999 RMK A01 T01051102  RH  022%=      5-min Rain = 0
KCO1 201711Z 29004KT 11/M10 A2999 RMK A01 T01071102  RH  022%=      5-min Rain = 0
KCO1 201712Z 32002KT 11/M10 A2999 RMK A01 T01071104  RH  022%=      5-min Rain = 0
KCO1 201713Z 27003KT 11/M10 A2999 RMK A01 T01071102  RH  022%=      5-min Rain = 0
KCO1 201714Z 25004KT 11/M10 A2999 RMK A01 T01081104  RH  022%=      5-min Rain = 0
KCO1 201715Z 28001KT 11/M10 A2999 RMK A01 T01091102  RH  022%=      5-min Rain = 0
KCO1 201716Z 28003KT 11/M10 A2998 RMK A01 T01101102  RH  021%=      5-min Rain = 0
KCO1 201717Z 23005KT 11/M10 A2998 RMK A01 T01111103  RH  021%=      5-min Rain = 0
KCO1 201718Z 25005KT 11/M10 A2998 RMK A01 T01121100  RH  022%=      5-min Rain = 0
KCO1 201719Z 27007KT 11/M10 A2998 RMK A01 T01131100  RH  022%=      5-min Rain = 0
KCO1 201720Z 26008KT 11/M10 A2998 RMK A01 T01141100  RH  021%=      5-min Rain = 0
KCO1 201721Z 25009KT 11/M10 A2998 RMK A01 T01121103  RH  021%=      5-min Rain = 0
KCO1 201722Z 26006KT 11/M11 A2998 RMK A01 T01101106  RH  021%=      5-min Rain = 0
KCO1 201723Z 22005KT 11/M10 A2998 RMK A01 T01091103  RH  022%=      5-min Rain = 0
KCO1 201724Z 21006KT 11/M10 A2998 RMK A01 T01111099  RH  022%=      5-min Rain = 0
KCO1 201725Z 19005KT 11/M10 A2998 RMK A01 T01131102  RH  021%=      5-min Rain = 0
KCO1 201726Z 20006KT 11/M10 A2998 RMK A01 T01121103  RH  021%=      5-min Rain = 0
KCO1 201727Z 23006KT 11/M10 A2998 RMK A01 T01131101  RH  021%=      5-min Rain = 0
KCO1 201728Z 25002KT 11/M10 A2998 RMK A01 T01121104  RH  021%=      5-min Rain = 0
KCO1 201729Z 21001KT 11/M11 A2998 RMK A01 T01111105  RH  021%=      5-min Rain = 0
KCO1 201730Z 18004KT 11/M10 A2998 RMK A01 T01111104  RH  021%=      5-min Rain = 0
KCO1 201731Z 18004KT 11/M10 A2998 RMK A01 T01141101  RH  021%=      5-min Rain = 0
KCO1 201732Z 17004KT 12/M10 A2998 RMK A01 T01151104  RH  021%=      5-min Rain = 0
KCO1 201733Z 17004KT 12/M10 A2998 RMK A01 T01151104  RH  021%=      5-min Rain = 0
KCO1 201734Z 16003KT 11/M11 A2998 RMK A01 T01141105  RH  020%=      5-min Rain = 0
KCO1 201735Z 19003KT 11/M10 A2998 RMK A01 T01141103  RH  021%=      5-min Rain = 0
KCO1 201736Z 19004KT 12/M10 A2998 RMK A01 T01181098  RH  021%=      5-min Rain = 0
KCO1 201737Z 17005KT 12/M10 A2998 RMK A01 T01191101  RH  020%=      5-min Rain = 0
KCO1 201738Z 16004KT 12/M10 A2998 RMK A01 T01171103  RH  020%=      5-min Rain = 0
KCO1 201739Z 20006KT 12/M10 A2998 RMK A01 T01181100  RH  021%=      5-min Rain = 0
KCO1 201740Z 23007KT 12/M10 A2998 RMK A01 T01201099  RH  021%=      5-min Rain = 0
KCO1 201741Z 23006KT 12/M10 A2998 RMK A01 T01201101  RH  020%=      5-min Rain = 0
KCO1 201742Z 27003KT 12/M10 A2998 RMK A01 T01181104  RH  020%=      5-min Rain = 0
KCO1 201743Z 25006G11KT 12/M10 A2998 RMK A01 T01171102  RH  021%=      5-min Rain = 0
KCO1 201744Z 24006KT 12/M10 A2998 RMK A01 T01181101  RH  021%=      5-min Rain = 0
KCO1 201745Z 24006KT 12/M10 A2998 RMK A01 T01181101  RH  021%=      5-min Rain = 0
KCO1 201746Z 22005KT 12/M10 A2997 RMK A01 T01191100  RH  021%=      5-min Rain = 0
KCO1 201747Z 21007KT 12/M10 A2997 RMK A01 T01211098  RH  021%=      5-min Rain = 0
KCO1 201748Z 22007KT 12/M10 A2997 RMK A01 T01201103  RH  020%=      5-min Rain = 0
KCO1 201749Z 21007KT 12/M10 A2997 RMK A01 T01181102  RH  020%=      5-min Rain = 0
KCO1 201750Z 22004KT 12/M10 A2998 RMK A01 T01191100  RH  021%=      5-min Rain = 0
KCO1 201751Z 22005KT 12/M10 A2997 RMK A01 T01201101  RH  020%=      5-min Rain = 0
KCO1 201752Z 26007KT 12/M10 A2998 RMK A01 T01201101  RH  020%=      5-min Rain = 0
KCO1 201753Z 25006KT 12/M10 A2998 RMK A01 T01171104  RH  020%=      5-min Rain = 0
KCO1 201754Z 27005KT 12/M10 A2998 RMK A01 T01161102  RH  021%=      5-min Rain = 0
KCO1 201755Z 25008KT 12/M10 A2998 RMK A01 T01191097  RH  021%=      5-min Rain = 0
KCO1 201756Z 23006KT 12/M10 A2998 RMK A01 T01221097  RH  021%=      5-min Rain = 0
KCO1 201757Z 23006KT 12/M10 A2997 RMK A01 T01231098  RH  020%=      5-min Rain = 0
KCO1 201758Z 22007KT 12/M10 A2997 RMK A01 T01241097  RH  020%=      5-min Rain = 0
KCO1 201759Z 23006KT 12/M10 A2997 RMK A01 T01241100  RH  020%=      5-min Rain = 0
KCO1 201800Z 23008KT 12/M10 A2997 RMK A01 T01241096  RH  021%=      5-min Rain = 0
KCO1 201801Z 22006KT 13/M10 A2997 RMK A01 T01271097  RH  020%=      5-min Rain = 0
KCO1 201802Z 20004KT 13/M10 A2997 RMK A01 T01251101  RH  020%=      5-min Rain = 0
KCO1 201803Z 16002KT 12/M10 A2997 RMK A01 T01231101  RH  020%=      5-min Rain = 0
KCO1 201804Z 29003G9KT 12/M10 A2997 RMK A01 T01231102  RH  020%=      5-min Rain = 0
KCO1 201805Z 24009G14KT 12/M10 A2997 RMK A01 T01231099  RH  020%=      5-min Rain = 0
KCO1 201806Z 24006KT 12/M10 A2997 RMK A01 T01231101  RH  020%=      5-min Rain = 0
KCO1 201807Z 22005KT 12/M10 A2997 RMK A01 T01221099  RH  020%=      5-min Rain = 0
KCO1 201808Z 16001KT 12/M10 A2997 RMK A01 T01231100  RH  020%=      5-min Rain = 0
KCO1 201809Z 26004KT 12/M10 A2997 RMK A01 T01231100  RH  020%=      5-min Rain = 0
KCO1 201810Z 25007KT 12/M10 A2997 RMK A01 T01231100  RH  020%=      5-min Rain = 0
KCO1 201811Z 24005KT 12/M10 A2997 RMK A01 T01221101  RH  020%=      5-min Rain = 0
KCO1 201812Z 25004KT 12/M10 A2997 RMK A01 T01221098  RH  020%=      5-min Rain = 0
KCO1 201813Z 24006KT 13/M10 A2997 RMK A01 T01251098  RH  020%=      5-min Rain = 0
KCO1 201814Z 23010KT 13/M10 A2996 RMK A01 T01251099  RH  020%=      5-min Rain = 0
KCO1 201815Z 22008KT 13/M10 A2996 RMK A01 T01261095  RH  020%=      5-min Rain = 0
KCO1 201816Z 23008KT 13/M09 A2996 RMK A01 T01301093  RH  020%=      5-min Rain = 0
KCO1 201817Z 27006KT 13/M10 A2996 RMK A01 T01291097  RH  020%=      5-min Rain = 0
KCO1 201818Z 26010KT 13/M10 A2996 RMK A01 T01301096  RH  020%=      5-min Rain = 0
KCO1 201819Z 23010KT 13/M10 A2996 RMK A01 T01281098  RH  020%=      5-min Rain = 0
KCO1 201820Z 24010KT 13/M10 A2996 RMK A01 T01281098  RH  020%=      5-min Rain = 0
KCO1 201821Z 25008KT 13/M10 A2996 RMK A01 T01261099  RH  020%=      5-min Rain = 0
KCO1 201822Z 25009KT 13/M10 A2996 RMK A01 T01281097  RH  020%=      5-min Rain = 0
KCO1 201823Z 22011KT 13/M10 A2996 RMK A01 T01301095  RH  020%=      5-min Rain = 0
KCO1 201824Z 22013KT 13/M09 A2996 RMK A01 T01311094  RH  020%=      5-min Rain = 0
KCO1 201825Z 22010KT 13/M10 A2996 RMK A01 T01311097  RH  019%=      5-min Rain = 0
KCO1 201826Z 20011KT 13/M10 A2995 RMK A01 T01311095  RH  020%=      5-min Rain = 0
KCO1 201827Z 22011KT 13/M10 A2995 RMK A01 T01311097  RH  019%=      5-min Rain = 0
KCO1 201828Z 24010KT 13/M10 A2995 RMK A01 T01301097  RH  020%=      5-min Rain = 0
KCO1 201829Z 22008KT 13/M10 A2995 RMK A01 T01301097  RH  020%=      5-min Rain = 0
KCO1 201830Z 25007KT 13/M10 A2995 RMK A01 T01311097  RH  019%=      5-min Rain = 0
KCO1 201831Z 21011KT 13/M10 A2995 RMK A01 T01321096  RH  020%=      5-min Rain = 0
KCO1 201832Z 21011KT 13/M10 A2995 RMK A01 T01321098  RH  019%=      5-min Rain = 0
KCO1 201833Z 24011G18KT 13/M10 A2995 RMK A01 T01321097  RH  019%=      5-min Rain = 0
KCO1 201834Z 25006KT 13/M10 A2995 RMK A01 T01321098  RH  019%=      5-min Rain = 0
KCO1 201835Z 23011KT 13/M10 A2995 RMK A01 T01311098  RH  019%=      5-min Rain = 0
KCO1 201836Z 23009KT 13/M10 A2995 RMK A01 T01321098  RH  019%=      5-min Rain = 0
KCO1 201837Z 22008KT 13/M10 A2995 RMK A01 T01331096  RH  019%=      5-min Rain = 0
KCO1 201838Z 22006KT 13/M10 A2995 RMK A01 T01341098  RH  019%=      5-min Rain = 0
KCO1 201839Z 23003KT 13/M10 A2995 RMK A01 T01331098  RH  019%=      5-min Rain = 0
KCO1 201840Z 22003KT 13/M10 A2995 RMK A01 T01341096  RH  019%=      5-min Rain = 0
KCO1 201841Z 23007KT 14/M10 A2995 RMK A01 T01351096  RH  019%=      5-min Rain = 0
KCO1 201842Z 25008KT 13/M10 A2995 RMK A01 T01341098  RH  019%=      5-min Rain = 0
KCO1 201843Z 24005KT 13/M10 A2995 RMK A01 T01301102  RH  019%=      5-min Rain = 0
KCO1 201844Z 26004KT 13/M10 A2995 RMK A01 T01281102  RH  019%=      5-min Rain = 0
KCO1 201845Z 23009KT 13/M10 A2995 RMK A01 T01271100  RH  020%=      5-min Rain = 0
KCO1 201846Z 22009G14KT 13/M10 A2995 RMK A01 T01291098  RH  020%=      5-min Rain = 0
KCO1 201847Z 24010KT 13/M10 A2995 RMK A01 T01321095  RH  020%=      5-min Rain = 0
KCO1 201848Z 24011KT 14/M09 A2995 RMK A01 T01361094  RH  019%=      5-min Rain = 0
KCO1 201849Z 22009KT 14/M10 A2995 RMK A01 T01371097  RH  019%=      5-min Rain = 0
KCO1 201850Z 23006KT 14/M10 A2995 RMK A01 T01351097  RH  019%=      5-min Rain = 0
KCO1 201851Z 26009KT 14/M10 A2995 RMK A01 T01361095  RH  019%=      5-min Rain = 0
KCO1 201852Z 25008KT 14/M10 A2995 RMK A01 T01361097  RH  019%=      5-min Rain = 0
KCO1 201853Z 25007KT 13/M10 A2994 RMK A01 T01331098  RH  019%=      5-min Rain = 0
KCO1 201854Z 26007KT 13/M10 A2994 RMK A01 T01301100  RH  019%=      5-min Rain = 0
KCO1 201855Z 25003KT 13/M10 A2994 RMK A01 T01291099  RH  019%=      5-min Rain = 0
KCO1 201856Z 24005KT 13/M10 A2994 RMK A01 T01291098  RH  020%=      5-min Rain = 0
KCO1 201857Z 22005KT 13/M10 A2994 RMK A01 T01291099  RH  019%=      5-min Rain = 0
KCO1 201858Z 25007KT 13/M10 A2994 RMK A01 T01301099  RH  019%=      5-min Rain = 0
KCO1 201859Z 24007KT 13/M10 A2994 RMK A01 T01311099  RH  019%=      5-min Rain = 0
KCO1 201900Z 28007KT 13/M10 A2994 RMK A01 T01341095  RH  019%=      5-min Rain = 0
KCO1 201901Z 28008KT 14/M09 A2994 RMK A01 T01371092  RH  019%=      5-min Rain = 0
KCO1 201902Z 26007KT 14/M09 A2994 RMK A01 T01391093  RH  019%=      5-min Rain = 0
KCO1 201903Z 28004KT 14/M09 A2993 RMK A01 T01391092  RH  019%=      5-min Rain = 0
KCO1 201904Z 24008G13KT 14/M09 A2993 RMK A01 T01421088  RH  019%=      5-min Rain = 0
KCO1 201905Z 20007G12KT 14/M09 A2993 RMK A01 T01441092  RH  019%=      5-min Rain = 0
KCO1 201906Z 20009KT 14/M10 A2993 RMK A01 T01431096  RH  018%=      5-min Rain = 0
KCO1 201907Z 21009KT 14/M10 A2993 RMK A01 T01401097  RH  018%=      5-min Rain = 0
KCO1 201908Z 21007KT 14/M10 A2993 RMK A01 T01381099  RH  018%=      5-min Rain = 0
KCO1 201909Z 21011KT 14/M10 A2993 RMK A01 T01381097  RH  019%=      5-min Rain = 0
KCO1 201910Z 22010KT 14/M10 A2993 RMK A01 T01371097  RH  019%=      5-min Rain = 0
KCO1 201911Z 23006KT 13/M10 A2993 RMK A01 T01341099  RH  019%=      5-min Rain = 0
KCO1 201912Z 24005KT 14/M09 A2993 RMK A01 T01351094  RH  020%=      5-min Rain = 0
KCO1 201913Z 24007KT 14/M09 A2993 RMK A01 T01371094  RH  019%=      5-min Rain = 0
KCO1 201914Z 26008KT 14/M10 A2993 RMK A01 T01381096  RH  019%=      5-min Rain = 0
KCO1 201915Z 27005KT 14/M10 A2993 RMK A01 T01371096  RH  019%=      5-min Rain = 0
KCO1 201916Z 27005KT 14/M10 A2993 RMK A01 T01361096  RH  019%=      5-min Rain = 0
KCO1 201917Z 26005KT 14/M09 A2992 RMK A01 T01371094  RH  019%=      5-min Rain = 0
KCO1 201918Z 23007KT 14/M10 A2992 RMK A01 T01381096  RH  019%=      5-min Rain = 0
KCO1 201919Z 23007KT 14/M10 A2992 RMK A01 T01381097  RH  019%=      5-min Rain = 0
KCO1 201920Z 21008KT 14/M10 A2992 RMK A01 T01371098  RH  019%=      5-min Rain = 0
KCO1 201921Z 22007KT 14/M10 A2992 RMK A01 T01371096  RH  019%=      5-min Rain = 0
KCO1 201922Z 20007KT 14/M10 A2992 RMK A01 T01381097  RH  019%=      5-min Rain = 0
KCO1 201923Z 21007KT 14/M10 A2992 RMK A01 T01381098  RH  018%=      5-min Rain = 0
KCO1 201924Z 21006KT 14/M10 A2992 RMK A01 T01371096  RH  019%=      5-min Rain = 0
KCO1 201925Z 26006KT 14/M09 A2992 RMK A01 T01391094  RH  019%=      5-min Rain = 0
KCO1 201926Z 26008G13KT 14/M10 A2992 RMK A01 T01401097  RH  018%=      5-min Rain = 0
KCO1 201927Z 22012KT 14/M10 A2991 RMK A01 T01391099  RH  018%=      5-min Rain = 0
KCO1 201928Z 27010KT 14/M10 A2991 RMK A01 T01411096  RH  018%=      5-min Rain = 0
KCO1 201929Z 27011KT 14/M10 A2991 RMK A01 T01421096  RH  018%=      5-min Rain = 0
KCO1 201930Z 26011KT 14/M10 A2991 RMK A01 T01421100  RH  018%=      5-min Rain = 0
KCO1 201931Z 24011KT 14/M10 A2991 RMK A01 T01411102  RH  018%=      5-min Rain = 0
KCO1 201932Z 23010KT 14/M10 A2991 RMK A01 T01401101  RH  018%=      5-min Rain = 0
KCO1 201933Z 24008KT 14/M10 A2991 RMK A01 T01421097  RH  018%=      5-min Rain = 0
KCO1 201934Z 26008KT 15/M09 A2991 RMK A01 T01471093  RH  018%=      5-min Rain = 0
KCO1 201935Z 25010G15KT 15/M10 A2991 RMK A01 T01501095  RH  018%=      5-min Rain = 0
KCO1 201936Z 24009KT 15/M10 A2991 RMK A01 T01501097  RH  017%=      5-min Rain = 0
KCO1 201937Z 25009G15KT 15/M10 A2991 RMK A01 T01481099  RH  017%=      5-min Rain = 0
KCO1 201938Z 26010KT 15/M10 A2991 RMK A01 T01491097  RH  017%=      5-min Rain = 0
KCO1 201939Z 27009KT 15/M10 A2991 RMK A01 T01491099  RH  017%=      5-min Rain = 0
KCO1 201940Z 25008KT 15/M10 A2991 RMK A01 T01461103  RH  017%=      5-min Rain = 0
KCO1 201941Z 26009KT 15/M10 A2991 RMK A01 T01461099  RH  017%=      5-min Rain = 0
KCO1 201942Z 24009KT 15/M10 A2991 RMK A01 T01481097  RH  017%=      5-min Rain = 0
KCO1 201943Z 27010KT 15/M10 A299 RMK A01 T01491096  RH  017%=      5-min Rain = 0
KCO1 201944Z 26008KT 15/M10 A299 RMK A01 T01501095  RH  018%=      5-min Rain = 0
KCO1 201945Z 25007KT 15/M10 A299 RMK A01 T01511095  RH  017%=      5-min Rain = 0
KCO1 201946Z 24006KT 15/M10 A299 RMK A01 T01511098  RH  017%=      5-min Rain = 0
KCO1 201947Z 27011KT 15/M10 A299 RMK A01 T01501096  RH  017%=      5-min Rain = 0
KCO1 201948Z 26010KT 15/M10 A299 RMK A01 T01501097  RH  017%=      5-min Rain = 0
KCO1 201949Z 23009KT 15/M10 A299 RMK A01 T01481098  RH  017%=      5-min Rain = 0
KCO1 201950Z 23009KT 15/M10 A299 RMK A01 T01481097  RH  017%=      5-min Rain = 0
KCO1 201951Z 27007G12KT 15/M10 A299 RMK A01 T01481097  RH  017%=      5-min Rain = 0
KCO1 201952Z 27008KT 15/M10 A299 RMK A01 T01491096  RH  017%=      5-min Rain = 0
KCO1 201953Z 26007KT 15/M09 A299 RMK A01 T01531093  RH  017%=      5-min Rain = 0
KCO1 201954Z 26010G16KT 15/M10 A299 RMK A01 T01541096  RH  017%=      5-min Rain = 0
KCO1 201955Z 27011KT 15/M10 A299 RMK A01 T01531096  RH  017%=      5-min Rain = 0
KCO1 201956Z 27006KT 15/M10 A299 RMK A01 T01521099  RH  017%=      5-min Rain = 0
KCO1 201957Z 25006KT 15/M10 A299 RMK A01 T01501099  RH  017%=      5-min Rain = 0
KCO1 201958Z 27011KT 15/M10 A2989 RMK A01 T01511096  RH  017%=      5-min Rain = 0
KCO1 201959Z 28011KT 15/M10 A2989 RMK A01 T01511100  RH  017%=      5-min Rain = 0
KCO1 202000Z 28010KT 15/M10 A2989 RMK A01 T01491101  RH  017%=      5-min Rain = 0
KCO1 202001Z 29009KT 15/M10 A2989 RMK A01 T01491100  RH  017%=      5-min Rain = 0
KCO1 202002Z 29009G14KT 15/M10 A2989 RMK A01 T01481101  RH  017%=      5-min Rain = 0
KCO1 202003Z 28010KT 15/M10 A2989 RMK A01 T01481099  RH  017%=      5-min Rain = 0
KCO1 202004Z 28009KT 15/M10 A2989 RMK A01 T01481101  RH  017%=      5-min Rain = 0
KCO1 202005Z 28008KT 15/M10 A2989 RMK A01 T01491099  RH  017%=      5-min Rain = 0
KCO1 202006Z 28007KT 15/M10 A2989 RMK A01 T01501100  RH  017%=      5-min Rain = 0
KCO1 202007Z 30007KT 15/M10 A2988 RMK A01 T01501101  RH  017%=      5-min Rain = 0
KCO1 202008Z 30005KT 15/M10 A2988 RMK A01 T01491103  RH  017%=      5-min Rain = 0
KCO1 202009Z 27005KT 15/M10 A2988 RMK A01 T01471103  RH  017%=      5-min Rain = 0
KCO1 202010Z 29005G10KT 15/M10 A2988 RMK A01 T01471101  RH  017%=      5-min Rain = 0
KCO1 202011Z 27005KT 15/M10 A2987 RMK A01 T01491098  RH  017%=      5-min Rain = 0
KCO1 202012Z 21010KT 15/M10 A2988 RMK A01 T01541096  RH  017%=      5-min Rain = 0
KCO1 202013Z 22008KT 16/M09 A2988 RMK A01 T01591093  RH  017%=      5-min Rain = 0
KCO1 202014Z 24008KT 16/M10 A2988 RMK A01 T01601098  RH  016%=      5-min Rain = 0
KCO1 202015Z 27010KT 16/M10 A2988 RMK A01 T01581100  RH  016%=      5-min Rain = 0
KCO1 202016Z 25011KT 16/M10 A2987 RMK A01 T01561103  RH  016%=      5-min Rain = 0
KCO1 202017Z 26008KT 15/M10 A2988 RMK A01 T01541102  RH  016%=      5-min Rain = 0
KCO1 202018Z 28005KT 15/M10 A2988 RMK A01 T01531104  RH  016%=      5-min Rain = 0
KCO1 202019Z 28005KT 15/M10 A2988 RMK A01 T01521099  RH  017%=      5-min Rain = 0
KCO1 202020Z 27007G12KT 16/M09 A2988 RMK A01 T01561094  RH  017%=      5-min Rain = 0
KCO1 202021Z 26009KT 16/M10 A2987 RMK A01 T01591100  RH  016%=      5-min Rain = 0
KCO1 202022Z 27012KT 16/M10 A2987 RMK A01 T01601099  RH  016%=      5-min Rain = 0
KCO1 202023Z 26014KT 16/M10 A2987 RMK A01 T01601102  RH  016%=      5-min Rain = 0
KCO1 202024Z 27013G23KT 16/M10 A2987 RMK A01 T01591103  RH  016%=      5-min Rain = 0
KCO1 202025Z 23011G17KT 16/M11 A2987 RMK A01 T01581107  RH  015%=      5-min Rain = 0
KCO1 202026Z 20008KT 16/M11 A2987 RMK A01 T01571106  RH  015%=      5-min Rain = 0
KCO1 202027Z 22005KT 16/M10 A2987 RMK A01 T01581103  RH  016%=      5-min Rain = 0
KCO1 202028Z 22005KT 16/M11 A2987 RMK A01 T01581106  RH  015%=      5-min Rain = 0
KCO1 202029Z 25008KT 16/M11 A2987 RMK A01 T01591106  RH  015%=      5-min Rain = 0
KCO1 202030Z 23008KT 16/M11 A2987 RMK A01 T01591109  RH  015%=      5-min Rain = 0
KCO1 202031Z 23007KT 16/M11 A2987 RMK A01 T01581107  RH  015%=      5-min Rain = 0
KCO1 202032Z 25009KT 16/M10 A2987 RMK A01 T01591104  RH  015%=      5-min Rain = 0
KCO1 202033Z 24009KT 16/M11 A2987 RMK A01 T01591106  RH  015%=      5-min Rain = 0
KCO1 202034Z 24009KT 16/M11 A2987 RMK A01 T01571111  RH  015%=      5-min Rain = 0
KCO1 202035Z 22007KT 16/M11 A2987 RMK A01 T01571107  RH  015%=      5-min Rain = 0
KCO1 202036Z 24008KT 16/M11 A2987 RMK A01 T01591105  RH  015%=      5-min Rain = 0
KCO1 202037Z 23008KT 16/M10 A2987 RMK A01 T01611104  RH  015%=      5-min Rain = 0
KCO1 202038Z 22010KT 16/M10 A2987 RMK A01 T01621104  RH  015%=      5-min Rain = 0
KCO1 202039Z 22009KT 16/M10 A2987 RMK A01 T01621102  RH  015%=      5-min Rain = 0
KCO1 202040Z 21009KT 16/M10 A2987 RMK A01 T01631104  RH  015%=      5-min Rain = 0
KCO1 202041Z 23010KT 16/M10 A2987 RMK A01 T01621104  RH  015%=      5-min Rain = 0
KCO1 202042Z 25006KT 16/M11 A2987 RMK A01 T01621105  RH  015%=      5-min Rain = 0
KCO1 202043Z 27008KT 16/M10 A2987 RMK A01 T01641101  RH  015%=      5-min Rain = 0
KCO1 202044Z 23006KT 17/M10 A2987 RMK A01 T01651102  RH  015%=      5-min Rain = 0
KCO1 202045Z 23004KT 16/M11 A2986 RMK A01 T01641105  RH  015%=      5-min Rain = 0
KCO1 202046Z 25006KT 16/M10 A2986 RMK A01 T01621104  RH  015%=      5-min Rain = 0
KCO1 202047Z 26004KT 16/M11 A2986 RMK A01 T01591108  RH  015%=      5-min Rain = 0
KCO1 202048Z 27005KT 16/M11 A2986 RMK A01 T01571107  RH  015%=      5-min Rain = 0
KCO1 202049Z 24007KT 16/M10 A2986 RMK A01 T01561104  RH  016%=      5-min Rain = 0
KCO1 202050Z 19008KT 16/M11 A2986 RMK A01 T01561106  RH  015%=      5-min Rain = 0
KCO1 202051Z 17007KT 16/M11 A2986 RMK A01 T01561105  RH  016%=      5-min Rain = 0
KCO1 202052Z 19010KT 16/M10 A2986 RMK A01 T01571104  RH  016%=      5-min Rain = 0
KCO1 202053Z 18009KT 16/M11 A2986 RMK A01 T01571107  RH  015%=      5-min Rain = 0
KCO1 202054Z 17008KT 16/M11 A2986 RMK A01 T01571107  RH  015%=      5-min Rain = 0
KCO1 202055Z 16007KT 16/M11 A2986 RMK A01 T01551110  RH  015%=      5-min Rain = 0
KCO1 202056Z 13005KT 16/M11 A2986 RMK A01 T01551107  RH  015%=      5-min Rain = 0
KCO1 202057Z 13003KT 16/M11 A2986 RMK A01 T01561106  RH  015%=      5-min Rain = 0
KCO1 202058Z 16004KT 16/M11 A2986 RMK A01 T01571107  RH  015%=      5-min Rain = 0
KCO1 202059Z 16008G13KT 16/M10 A2986 RMK A01 T01581104  RH  015%=      5-min Rain = 0
KCO1 202100Z 15008KT 16/M10 A2986 RMK A01 T01591104  RH  015%=      5-min Rain = 0
KCO1 202101Z 17009KT 16/M10 A2986 RMK A01 T01601102  RH  016%=      5-min Rain = 0
KCO1 202102Z 18010KT 16/M10 A2985 RMK A01 T01611104  RH  015%=      5-min Rain = 0
KCO1 202103Z 17006KT 16/M11 A2986 RMK A01 T01561109  RH  015%=      5-min Rain = 0
KCO1 202104Z 15008KT 16/M11 A2985 RMK A01 T01551105  RH  016%=      5-min Rain = 0
KCO1 202105Z 18010KT 16/M11 A2985 RMK A01 T01551107  RH  015%=      5-min Rain = 0
KCO1 202106Z 18007KT 16/M11 A2985 RMK A01 T01551105  RH  016%=      5-min Rain = 0
KCO1 202107Z 18009KT 16/M10 A2985 RMK A01 T01581103  RH  016%=      5-min Rain = 0
KCO1 202108Z 16010KT 16/M10 A2985 RMK A01 T01581104  RH  015%=      5-min Rain = 0
KCO1 202109Z 17009KT 16/M11 A2985 RMK A01 T01581106  RH  015%=      5-min Rain = 0
KCO1 202110Z 17007KT 16/M11 A2986 RMK A01 T01551111  RH  015%=      5-min Rain = 0
KCO1 202111Z 16005KT 15/M11 A2986 RMK A01 T01531110  RH  015%=      5-min Rain = 0
KCO1 202112Z 17006KT 15/M11 A2986 RMK A01 T01531109  RH  015%=      5-min Rain = 0
KCO1 202113Z 18005KT 15/M11 A2986 RMK A01 T01521110  RH  015%=      5-min Rain = 0
KCO1 202114Z 17003KT 15/M11 A2986 RMK A01 T01501111  RH  015%=      5-min Rain = 0
KCO1 202115Z 15005KT 15/M11 A2986 RMK A01 T01491109  RH  016%=      5-min Rain = 0
KCO1 202116Z 14007KT 15/M11 A2986 RMK A01 T01491109  RH  016%=      5-min Rain = 0
KCO1 202117Z 14004KT 15/M11 A2986 RMK A01 T01491110  RH  016%=      5-min Rain = 0
KCO1 202118Z 14003KT 15/M11 A2985 RMK A01 T01481111  RH  016%=      5-min Rain = 0
KCO1 202119Z 11004KT 15/M11 A2985 RMK A01 T01501108  RH  016%=      5-min Rain = 0
KCO1 202120Z 12008KT 15/M11 A2985 RMK A01 T01521105  RH  016%=      5-min Rain = 0
KCO1 202121Z 13006KT 15/M11 A2985 RMK A01 T01541105  RH  016%=      5-min Rain = 0
KCO1 202122Z 14004KT 16/M11 A2985 RMK A01 T01551106  RH  016%=      5-min Rain = 0
KCO1 202123Z 12005KT 16/M11 A2985 RMK A01 T01561105  RH  016%=      5-min Rain = 0
KCO1 202124Z 13004KT 15/M11 A2985 RMK A01 T01541109  RH  015%=      5-min Rain = 0
KCO1 202125Z 12004KT 15/M11 A2985 RMK A01 T01531106  RH  016%=      5-min Rain = 0
KCO1 202126Z 15003KT 16/M10 A2985 RMK A01 T01551102  RH  016%=      5-min Rain = 0
KCO1 202127Z 10001KT 16/M11 A2985 RMK A01 T01561107  RH  015%=      5-min Rain = 0
KCO1 202128Z 14002KT 16/M11 A2985 RMK A01 T01561108  RH  015%=      5-min Rain = 0
KCO1 202129Z 18005KT 16/M11 A2985 RMK A01 T01571106  RH  015%=      5-min Rain = 0
KCO1 202130Z 20007KT 16/M10 A2985 RMK A01 T01591104  RH  015%=      5-min Rain = 0
KCO1 202131Z 19007KT 16/M11 A2985 RMK A01 T01591107  RH  015%=      5-min Rain = 0
KCO1 202132Z 20006KT 16/M11 A2985 RMK A01 T01591105  RH  015%=      5-min Rain = 0
KCO1 202133Z 21005KT 16/M10 A2985 RMK A01 T01611104  RH  015%=      5-min Rain = 0
KCO1 202134Z 21006KT 16/M11 A2985 RMK A01 T01591108  RH  015%=      5-min Rain = 0
KCO1 202135Z 21007KT 16/M11 A2985 RMK A01 T01581106  RH  015%=      5-min Rain = 0
KCO1 202136Z 22004KT 16/M11 A2985 RMK A01 T01591108  RH  015%=      5-min Rain = 0
KCO1 202137Z 17004KT 16/M11 A2985 RMK A01 T01591106  RH  015%=      5-min Rain = 0
KCO1 202138Z 16005KT 16/M11 A2985 RMK A01 T01611107  RH  015%=      5-min Rain = 0
KCO1 202139Z 16005KT 16/M11 A2985 RMK A01 T01611111  RH  014%=      5-min Rain = 0
KCO1 202140Z 17004KT 16/M11 A2985 RMK A01 T01591113  RH  014%=      5-min Rain = 0
KCO1 202141Z 17006KT 16/M11 A2985 RMK A01 T01581109  RH  015%=      5-min Rain = 0
KCO1 202142Z 15006KT 16/M11 A2984 RMK A01 T01591107  RH  015%=      5-min Rain = 0
KCO1 202143Z 19007KT 16/M11 A2984 RMK A01 T01591108  RH  015%=      5-min Rain = 0
KCO1 202144Z 19009KT 16/M11 A2984 RMK A01 T01581108  RH  015%=      5-min Rain = 0
KCO1 202145Z 19008KT 16/M11 A2984 RMK A01 T01581110  RH  015%=      5-min Rain = 0
KCO1 202146Z 19007KT 16/M11 A2984 RMK A01 T01561111  RH  015%=      5-min Rain = 0
KCO1 202147Z 19005KT 16/M11 A2984 RMK A01 T01561111  RH  015%=      5-min Rain = 0
KCO1 202148Z 17004KT 16/M11 A2984 RMK A01 T01571110  RH  015%=      5-min Rain = 0
KCO1 202149Z 17008KT 16/M11 A2984 RMK A01 T01571108  RH  015%=      5-min Rain = 0
KCO1 202150Z 17008KT 16/M11 A2984 RMK A01 T01581105  RH  015%=      5-min Rain = 0
KCO1 202151Z 17006KT 16/M11 A2984 RMK A01 T01561109  RH  015%=      5-min Rain = 0
KCO1 202152Z 17007KT 15/M11 A2984 RMK A01 T01531110  RH  015%=      5-min Rain = 0
KCO1 202153Z 18005KT 15/M11 A2984 RMK A01 T01531107  RH  016%=      5-min Rain = 0
KCO1 202154Z 21004KT 15/M11 A2984 RMK A01 T01531110  RH  015%=      5-min Rain = 0
KCO1 202155Z 19005KT 15/M11 A2984 RMK A01 T01521109  RH  015%=      5-min Rain = 0
KCO1 202156Z 21007KT 15/M11 A2984 RMK A01 T01521107  RH  016%=      5-min Rain = 0
KCO1 202157Z 21008KT 15/M11 A2984 RMK A01 T01521107  RH  016%=      5-min Rain = 0
KCO1 202158Z 19009KT 15/M11 A2984 RMK A01 T01531105  RH  016%=      5-min Rain = 0
KCO1 202159Z 19010KT 15/M11 A2984 RMK A01 T01541108  RH  015%=      5-min Rain = 0
KCO1 202200Z 18009KT 15/M11 A2984 RMK A01 T01531110  RH  015%=      5-min Rain = 0
KCO1 202201Z 21008KT 15/M11 A2984 RMK A01 T01521110  RH  015%=      5-min Rain = 0
KCO1 202202Z 21006KT 15/M11 A2984 RMK A01 T01521111  RH  015%=      5-min Rain = 0
KCO1 202203Z 22005KT 15/M11 A2984 RMK A01 T01521109  RH  016%=      5-min Rain = 0
KCO1 202204Z 23004KT 15/M11 A2984 RMK A01 T01521110  RH  015%=      5-min Rain = 0
KCO1 202205Z 23004KT 15/M11 A2984 RMK A01 T01521109  RH  016%=      5-min Rain = 0
KCO1 202206Z 19006KT 15/M11 A2984 RMK A01 T01521108  RH  016%=      5-min Rain = 0
KCO1 202207Z 18008KT 15/M11 A2984 RMK A01 T01531106  RH  016%=      5-min Rain = 0
KCO1 202208Z 17007KT 15/M11 A2984 RMK A01 T01531108  RH  016%=      5-min Rain = 0
KCO1 202209Z 17006KT 15/M11 A2984 RMK A01 T01531109  RH  015%=      5-min Rain = 0
KCO1 202210Z 18007KT 15/M11 A2984 RMK A01 T01521109  RH  015%=      5-min Rain = 0
KCO1 202211Z 18006KT 15/M11 A2984 RMK A01 T01521107  RH  016%=      5-min Rain = 0
KCO1 202212Z 19008KT 15/M11 A2984 RMK A01 T01531105  RH  016%=      5-min Rain = 0
KCO1 202213Z 19007KT 15/M11 A2984 RMK A01 T01531110  RH  015%=      5-min Rain = 0
KCO1 202214Z 18007KT 15/M11 A2984 RMK A01 T01511111  RH  015%=      5-min Rain = 0
KCO1 202215Z 18007KT 15/M11 A2984 RMK A01 T01511109  RH  016%=      5-min Rain = 0
KCO1 202216Z 18008KT 15/M11 A2984 RMK A01 T01511108  RH  016%=      5-min Rain = 0
KCO1 202217Z 15008KT 15/M11 A2984 RMK A01 T01521107  RH  016%=      5-min Rain = 0
KCO1 202218Z 14006KT 15/M11 A2984 RMK A01 T01521109  RH  015%=      5-min Rain = 0
KCO1 202219Z 16006KT 15/M11 A2984 RMK A01 T01531107  RH  016%=      5-min Rain = 0
KCO1 202220Z 17008KT 15/M11 A2984 RMK A01 T01541106  RH  016%=      5-min Rain = 0
KCO1 202221Z 17007KT 16/M11 A2984 RMK A01 T01551107  RH  015%=      5-min Rain = 0
KCO1 202222Z 15007KT 16/M11 A2984 RMK A01 T01561107  RH  015%=      5-min Rain = 0
KCO1 202223Z 16007KT 16/M11 A2983 RMK A01 T01571108  RH  015%=      5-min Rain = 0
KCO1 202224Z 16009KT 16/M11 A2983 RMK A01 T01581108  RH  015%=      5-min Rain = 0
KCO1 202225Z 15007KT 16/M11 A2983 RMK A01 T01571110  RH  015%=      5-min Rain = 0
KCO1 202226Z 16006KT 16/M11 A2983 RMK A01 T01571109  RH  015%=      5-min Rain = 0
KCO1 202227Z 15007KT 16/M11 A2983 RMK A01 T01581107  RH  015%=      5-min Rain = 0
KCO1 202228Z 15008KT 16/M10 A2983 RMK A01 T01611103  RH  015%=      5-min Rain = 0
KCO1 202229Z 15007KT 16/M11 A2983 RMK A01 T01631107  RH  015%=      5-min Rain = 0
KCO1 202230Z 14006KT 16/M11 A2983 RMK A01 T01631108  RH  015%=      5-min Rain = 0
KCO1 202231Z 15006KT 16/M11 A2983 RMK A01 T01621107  RH  015%=      5-min Rain = 0
KCO1 202232Z 13007KT 16/M11 A2983 RMK A01 T01631107  RH  015%=      5-min Rain = 0
KCO1 202233Z 14007KT 16/M11 A2983 RMK A01 T01641107  RH  015%=      5-min Rain = 0
KCO1 202234Z 15007KT 16/M11 A2983 RMK A01 T01621109  RH  014%=      5-min Rain = 0
KCO1 202235Z 17005KT 16/M11 A2983 RMK A01 T01611110  RH  014%=      5-min Rain = 0
KCO1 202236Z 14005KT 16/M11 A2983 RMK A01 T01601110  RH  015%=      5-min Rain = 0
KCO1 202237Z 13005KT 16/M11 A2983 RMK A01 T01591110  RH  015%=      5-min Rain = 0
KCO1 202238Z 13005KT 16/M11 A2983 RMK A01 T01591108  RH  015%=      5-min Rain = 0
KCO1 202239Z 13005KT 16/M11 A2983 RMK A01 T01591109  RH  015%=      5-min Rain = 0
KCO1 202240Z 15006KT 16/M11 A2983 RMK A01 T01591108  RH  015%=      5-min Rain = 0
KCO1 202241Z 18007KT 16/M11 A2983 RMK A01 T01601107  RH  015%=      5-min Rain = 0
KCO1 202242Z 18006KT 16/M11 A2983 RMK A01 T01621109  RH  015%=      5-min Rain = 0
KCO1 202243Z 18006KT 16/M11 A2983 RMK A01 T01611111  RH  014%=      5-min Rain = 0
KCO1 202244Z 21004KT 16/M11 A2983 RMK A01 T01601111  RH  014%=      5-min Rain = 0
KCO1 202245Z 23002KT 16/M11 A2983 RMK A01 T01601112  RH  014%=      5-min Rain = 0
KCO1 202246Z 24001KT 16/M11 A2983 RMK A01 T01611111  RH  014%=      5-min Rain = 0
KCO1 202247Z 20001KT 16/M11 A2983 RMK A01 T01611111  RH  014%=      5-min Rain = 0
KCO1 202248Z 12001KT 16/M11 A2983 RMK A01 T01611111  RH  014%=      5-min Rain = 0
KCO1 202249Z 15002KT 16/M11 A2983 RMK A01 T01611110  RH  014%=      5-min Rain = 0
KCO1 202250Z 14003KT 16/M11 A2983 RMK A01 T01621108  RH  015%=      5-min Rain = 0
KCO1 202251Z 13006KT 16/M11 A2983 RMK A01 T01631107  RH  015%=      5-min Rain = 0
KCO1 202252Z 12005KT 16/M11 A2983 RMK A01 T01631106  RH  015%=      5-min Rain = 0
KCO1 202253Z 13004KT 16/M11 A2983 RMK A01 T01621106  RH  015%=      5-min Rain = 0
KCO1 202254Z 13003KT 16/M11 A2983 RMK A01 T01611106  RH  015%=      5-min Rain = 0
KCO1 202255Z 11001KT 16/M11 A2983 RMK A01 T01601108  RH  015%=      5-min Rain = 0
KCO1 202256Z 12002KT 16/M11 A2983 RMK A01 T01601108  RH  015%=      5-min Rain = 0
KCO1 202257Z 14006KT 16/M11 A2983 RMK A01 T01601108  RH  015%=      5-min Rain = 0
KCO1 202258Z 15007KT 16/M11 A2983 RMK A01 T01601107  RH  015%=      5-min Rain = 0
KCO1 202259Z 16006KT 16/M11 A2983 RMK A01 T01611105  RH  015%=      5-min Rain = 0
KCO1 202300Z 15006KT 16/M11 A2983 RMK A01 T01621107  RH  015%=      5-min Rain = 0
KCO1 202301Z 13006KT 16/M11 A2984 RMK A01 T01621105  RH  015%=      5-min Rain = 0
KCO1 202302Z 15005KT 16/M11 A2984 RMK A01 T01611106  RH  015%=      5-min Rain = 0
KCO1 202303Z 18005KT 16/M11 A2984 RMK A01 T01611106  RH  015%=      5-min Rain = 0
KCO1 202304Z 17005KT 16/M11 A2984 RMK A01 T01621107  RH  015%=      5-min Rain = 0
KCO1 202305Z 15006KT 16/M11 A2984 RMK A01 T01631107  RH  015%=      5-min Rain = 0
KCO1 202306Z 16006KT 16/M11 A2984 RMK A01 T01621107  RH  015%=      5-min Rain = 0
KCO1 202307Z 15004KT 16/M11 A2984 RMK A01 T01611109  RH  015%=      5-min Rain = 0
KCO1 202308Z 15002KT 16/M11 A2984 RMK A01 T01611108  RH  015%=      5-min Rain = 0
KCO1 202309Z 10000KT 16/M11 A2984 RMK A01 T01611108  RH  015%=      5-min Rain = 0
KCO1 202310Z 10001KT 16/M11 A2984 RMK A01 T01621106  RH  015%=      5-min Rain = 0
KCO1 202311Z 11002KT 16/M11 A2983 RMK A01 T01621106  RH  015%=      5-min Rain = 0
KCO1 202312Z 17003G8KT 16/M11 A2983 RMK A01 T01621108  RH  015%=      5-min Rain = 0
KCO1 202313Z 20007KT 16/M11 A2983 RMK A01 T01621108  RH  015%=      5-min Rain = 0
KCO1 202314Z 20005KT 16/M11 A2983 RMK A01 T01621108  RH  015%=      5-min Rain = 0
KCO1 202315Z 23004KT 16/M11 A2983 RMK A01 T01621108  RH  015%=      5-min Rain = 0
KCO1 202316Z 19003KT 16/M11 A2983 RMK A01 T01621110  RH  014%=      5-min Rain = 0
KCO1 202317Z 17005KT 16/M11 A2983 RMK A01 T01601111  RH  014%=      5-min Rain = 0
KCO1 202318Z 17004KT 16/M11 A2983 RMK A01 T01591110  RH  015%=      5-min Rain = 0
KCO1 202319Z 17004KT 16/M11 A2983 RMK A01 T01581111  RH  015%=      5-min Rain = 0
KCO1 202320Z 18007KT 16/M11 A2984 RMK A01 T01581110  RH  015%=      5-min Rain = 0
KCO1 202321Z 18006KT 16/M11 A2984 RMK A01 T01561112  RH  015%=      5-min Rain = 0
KCO1 202322Z 19007KT 16/M11 A2984 RMK A01 T01551111  RH  015%=      5-min Rain = 0
KCO1 202323Z 19007KT 16/M11 A2984 RMK A01 T01551110  RH  015%=      5-min Rain = 0
KCO1 202324Z 19007KT 15/M11 A2984 RMK A01 T01541112  RH  015%=      5-min Rain = 0
KCO1 202325Z 17007KT 15/M11 A2984 RMK A01 T01531110  RH  015%=      5-min Rain = 0
KCO1 202326Z 17006KT 15/M11 A2983 RMK A01 T01531110  RH  015%=      5-min Rain = 0
KCO1 202327Z 17006KT 15/M11 A2984 RMK A01 T01531111  RH  015%=      5-min Rain = 0
KCO1 202328Z 17005KT 15/M11 A2984 RMK A01 T01521112  RH  015%=      5-min Rain = 0
KCO1 202329Z 17005KT 15/M11 A2984 RMK A01 T01511111  RH  015%=      5-min Rain = 0
KCO1 202330Z 17006KT 15/M11 A2984 RMK A01 T01511111  RH  015%=      5-min Rain = 0
KCO1 202331Z 17006KT 15/M11 A2984 RMK A01 T01511110  RH  016%=      5-min Rain = 0
KCO1 202332Z 18005KT 15/M11 A2984 RMK A01 T01511108  RH  016%=      5-min Rain = 0
KCO1 202333Z 18006KT 15/M11 A2984 RMK A01 T01501109  RH  016%=      5-min Rain = 0
KCO1 202334Z 18005KT 15/M11 A2984 RMK A01 T01501112  RH  015%=      5-min Rain = 0
KCO1 202335Z 18006KT 15/M11 A2984 RMK A01 T01501112  RH  015%=      5-min Rain = 0
KCO1 202336Z 18006KT 15/M11 A2984 RMK A01 T01491111  RH  015%=      5-min Rain = 0
KCO1 202337Z 18006KT 15/M11 A2984 RMK A01 T01491111  RH  016%=      5-min Rain = 0
KCO1 202338Z 18005KT 15/M11 A2985 RMK A01 T01491110  RH  016%=      5-min Rain = 0
KCO1 202339Z 18004KT 15/M11 A2985 RMK A01 T01491111  RH  016%=      5-min Rain = 0
KCO1 202340Z 18004KT 15/M11 A2985 RMK A01 T01491110  RH  016%=      5-min Rain = 0
KCO1 202341Z 18005KT 15/M11 A2985 RMK A01 T01491109  RH  016%=      5-min Rain = 0
KCO1 202342Z 18004KT 15/M11 A2985 RMK A01 T01481108  RH  016%=      5-min Rain = 0
KCO1 202343Z 17005KT 15/M11 A2984 RMK A01 T01481106  RH  016%=      5-min Rain = 0
KCO1 202344Z 17005KT 15/M10 A2984 RMK A01 T01471104  RH  017%=      5-min Rain = 0
KCO1 202345Z 17005KT 15/M10 A2984 RMK A01 T01461102  RH  017%=      5-min Rain = 0
KCO1 202346Z 16004KT 15/M10 A2984 RMK A01 T01461101  RH  017%=      5-min Rain = 0
KCO1 202347Z 15005KT 15/M10 A2984 RMK A01 T01461101  RH  017%=      5-min Rain = 0
KCO1 202348Z 16004KT 15/M11 A2984 RMK A01 T01461106  RH  017%=      5-min Rain = 0
KCO1 202349Z 16004KT 15/M11 A2985 RMK A01 T01471105  RH  017%=      5-min Rain = 0
KCO1 202350Z 15005KT 15/M10 A2985 RMK A01 T01471104  RH  017%=      5-min Rain = 0
KCO1 202351Z 15005KT 15/M10 A2985 RMK A01 T01481104  RH  016%=      5-min Rain = 0
KCO1 202352Z 15005KT 15/M11 A2985 RMK A01 T01481105  RH  016%=      5-min Rain = 0
KCO1 202353Z 15004KT 15/M11 A2984 RMK A01 T01491106  RH  016%=      5-min Rain = 0
KCO1 202354Z 15004KT 15/M11 A2984 RMK A01 T01491106  RH  016%=      5-min Rain = 0
KCO1 202355Z 15004KT 15/M11 A2984 RMK A01 T01491105  RH  016%=      5-min Rain = 0
KCO1 202356Z 15004KT 15/M11 A2984 RMK A01 T01481105  RH  016%=      5-min Rain = 0
KCO1 202357Z 15004KT 15/M10 A2984 RMK A01 T01491104  RH  016%=      5-min Rain = 0
KCO1 202358Z 15004KT 15/M10 A2984 RMK A01 T01491104  RH  016%=      5-min Rain = 0
KCO1 202359Z 15004KT 15/M10 A2985 RMK A01 T01481103  RH  017%=      5-min Rain = 0
KCO1 210000Z 16004KT 15/M10 A2985 RMK A01 T01481103  RH  017%=      5-min Rain = 0
KCO1 210001Z 16004KT 15/M10 A2985 RMK A01 T01471101  RH  017%=      5-min Rain = 0
KCO1 210002Z 16005KT 15/M10 A2985 RMK A01 T01471101  RH  017%=      5-min Rain = 0
KCO1 210003Z 16004KT 15/M10 A2985 RMK A01 T01471101  RH  017%=      5-min Rain = 0
KCO1 210004Z 16004KT 15/M10 A2985 RMK A01 T01461100  RH  017%=      5-min Rain = 0
KCO1 210005Z 16004KT 15/M10 A2985 RMK A01 T01461101  RH  017%=      5-min Rain = 0
KCO1 210006Z 16004KT 15/M10 A2985 RMK A01 T01461100  RH  017%=      5-min Rain = 0
KCO1 210007Z 16004KT 15/M10 A2985 RMK A01 T01451100  RH  017%=      5-min Rain = 0
KCO1 210008Z 16004KT 15/M10 A2985 RMK A01 T01451100  RH  017%=      5-min Rain = 0
KCO1 210009Z 16003KT 14/M10 A2985 RMK A01 T01441100  RH  017%=      5-min Rain = 0
KCO1 210010Z 16004KT 14/M10 A2985 RMK A01 T01441100  RH  018%=      5-min Rain = 0
KCO1 210011Z 16004KT 14/M10 A2985 RMK A01 T01431100  RH  018%=      5-min Rain = 0
KCO1 210012Z 16004KT 14/M10 A2985 RMK A01 T01431099  RH  018%=      5-min Rain = 0
KCO1 210013Z 15004KT 14/M10 A2985 RMK A01 T01421098  RH  018%=      5-min Rain = 0
KCO1 210014Z 15004KT 14/M10 A2985 RMK A01 T01421097  RH  018%=      5-min Rain = 0
KCO1 210015Z 15004KT 14/M10 A2984 RMK A01 T01411096  RH  018%=      5-min Rain = 0
KCO1 210016Z 15003KT 14/M10 A2984 RMK A01 T01411096  RH  018%=      5-min Rain = 0
KCO1 210017Z 15003KT 14/M10 A2984 RMK A01 T01401096  RH  018%=      5-min Rain = 0
KCO1 210018Z 15003KT 14/M10 A2984 RMK A01 T01401096  RH  019%=      5-min Rain = 0
KCO1 210019Z 15003KT 14/M10 A2984 RMK A01 T01401096  RH  019%=      5-min Rain = 0
KCO1 210020Z 15003KT 14/M10 A2984 RMK A01 T01391096  RH  019%=      5-min Rain = 0
KCO1 210021Z 15003KT 14/M10 A2984 RMK A01 T01391097  RH  019%=      5-min Rain = 0
KCO1 210022Z 15003KT 14/M10 A2984 RMK A01 T01391097  RH  018%=      5-min Rain = 0
KCO1 210023Z 15003KT 14/M10 A2984 RMK A01 T01391097  RH  018%=      5-min Rain = 0
KCO1 210024Z 15003KT 14/M10 A2984 RMK A01 T01391097  RH  018%=      5-min Rain = 0
KCO1 210025Z 15003KT 14/M10 A2984 RMK A01 T01381097  RH  019%=      5-min Rain = 0
KCO1 210026Z 15003KT 14/M10 A2984 RMK A01 T01371096  RH  019%=      5-min Rain = 0
KCO1 210027Z 15003KT 14/M10 A2984 RMK A01 T01361095  RH  019%=      5-min Rain = 0
KCO1 210028Z 14003KT 14/M10 A2985 RMK A01 T01351096  RH  019%=      5-min Rain = 0
KCO1 210029Z 13003KT 13/M10 A2985 RMK A01 T01341096  RH  019%=      5-min Rain = 0
KCO1 210030Z 13003KT 13/M10 A2985 RMK A01 T01341096  RH  019%=      5-min Rain = 0
KCO1 210031Z 13003KT 13/M10 A2984 RMK A01 T01331097  RH  019%=      5-min Rain = 0
KCO1 210032Z 13003KT 13/M10 A2984 RMK A01 T01331097  RH  019%=      5-min Rain = 0
KCO1 210033Z 13003KT 13/M10 A2984 RMK A01 T01331097  RH  019%=      5-min Rain = 0
KCO1 210034Z 13003KT 13/M10 A2984 RMK A01 T01321096  RH  019%=      5-min Rain = 0
KCO1 210035Z 13004KT 13/M10 A2984 RMK A01 T01321095  RH  020%=      5-min Rain = 0
KCO1 210036Z 12004KT 13/M09 A2984 RMK A01 T01311094  RH  020%=      5-min Rain = 0
KCO1 210037Z 12004KT 13/M09 A2984 RMK A01 T01311093  RH  020%=      5-min Rain = 0
KCO1 210038Z 12004KT 13/M09 A2984 RMK A01 T01301093  RH  020%=      5-min Rain = 0
KCO1 210039Z 12004KT 13/M09 A2984 RMK A01 T01301094  RH  020%=      5-min Rain = 0
KCO1 210040Z 12004KT 13/M09 A2984 RMK A01 T01301094  RH  020%=      5-min Rain = 0
KCO1 210041Z 12004KT 13/M10 A2984 RMK A01 T01301095  RH  020%=      5-min Rain = 0
KCO1 210042Z 11005KT 13/M09 A2984 RMK A01 T01301094  RH  020%=      5-min Rain = 0
KCO1 210043Z 10006KT 13/M09 A2984 RMK A01 T01301093  RH  020%=      5-min Rain = 0
KCO1 210044Z 10006KT 13/M09 A2984 RMK A01 T01301093  RH  020%=      5-min Rain = 0
KCO1 210045Z 10006KT 13/M09 A2984 RMK A01 T01291093  RH  020%=      5-min Rain = 0
KCO1 210046Z 10006KT 13/M09 A2984 RMK A01 T01291093  RH  020%=      5-min Rain = 0
KCO1 210047Z 10006KT 13/M09 A2984 RMK A01 T01291094  RH  020%=      5-min Rain = 0
KCO1 210048Z 10006KT 13/M09 A2984 RMK A01 T01291094  RH  020%=      5-min Rain = 0
KCO1 210049Z 10006KT 13/M09 A2984 RMK A01 T01291093  RH  020%=      5-min Rain = 0
KCO1 210050Z 09006KT 13/M09 A2984 RMK A01 T01291092  RH  021%=      5-min Rain = 0
KCO1 210051Z 09006KT 13/M09 A2984 RMK A01 T01281092  RH  021%=      5-min Rain = 0
KCO1 210052Z 09006KT 13/M09 A2984 RMK A01 T01271091  RH  021%=      5-min Rain = 0
KCO1 210053Z 09006KT 13/M09 A2984 RMK A01 T01271091  RH  021%=      5-min Rain = 0
KCO1 210054Z 09006KT 13/M09 A2984 RMK A01 T01271091  RH  021%=      5-min Rain = 0
KCO1 210055Z 09006KT 13/M09 A2984 RMK A01 T01271090  RH  021%=      5-min Rain = 0
KCO1 210056Z 09006KT 13/M09 A2984 RMK A01 T01261090  RH  021%=      5-min Rain = 0
KCO1 210057Z 09006KT 13/M09 A2984 RMK A01 T01261090  RH  021%=      5-min Rain = 0
KCO1 210058Z 08006KT 13/M09 A2984 RMK A01 T01251089  RH  022%=      5-min Rain = 0
KCO1 210059Z 08006KT 13/M09 A2984 RMK A01 T01251089  RH  022%=      5-min Rain = 0
KCO1 210100Z 08006KT 12/M09 A2984 RMK A01 T01241089  RH  022%=      5-min Rain = 0
KCO1 210101Z 08006KT 12/M09 A2984 RMK A01 T01231089  RH  022%=      5-min Rain = 0
KCO1 210102Z 08006KT 12/M09 A2983 RMK A01 T01231089  RH  022%=      5-min Rain = 0
KCO1 210103Z 08005KT 12/M09 A2984 RMK A01 T01231089  RH  022%=      5-min Rain = 0
KCO1 210104Z 08005KT 12/M09 A2984 RMK A01 T01221089  RH  022%=      5-min Rain = 0
KCO1 210105Z 08005KT 12/M09 A2984 RMK A01 T01221089  RH  022%=      5-min Rain = 0
KCO1 210106Z 08005KT 12/M09 A2984 RMK A01 T01221089  RH  022%=      5-min Rain = 0
KCO1 210107Z 08005KT 12/M09 A2985 RMK A01 T01221089  RH  022%=      5-min Rain = 0
KCO1 210108Z 08005KT 12/M09 A2985 RMK A01 T01221089  RH  022%=      5-min Rain = 0
KCO1 210109Z 09005KT 12/M09 A2985 RMK A01 T01221089  RH  022%=      5-min Rain = 0
KCO1 210110Z 09006KT 12/M09 A2985 RMK A01 T01221089  RH  022%=      5-min Rain = 0
KCO1 210111Z 09006KT 12/M09 A2984 RMK A01 T01221088  RH  022%=      5-min Rain = 0
KCO1 210112Z 09007KT 12/M09 A2984 RMK A01 T01221087  RH  022%=      5-min Rain = 0
KCO1 210113Z 09006KT 12/M09 A2984 RMK A01 T01211087  RH  022%=      5-min Rain = 0
KCO1 210114Z 10007KT 12/M09 A2984 RMK A01 T01211086  RH  023%=      5-min Rain = 0
KCO1 210115Z 10006KT 12/M09 A2984 RMK A01 T01211086  RH  023%=      5-min Rain = 0
KCO1 210116Z 10005KT 12/M09 A2984 RMK A01 T01211085  RH  023%=      5-min Rain = 0
KCO1 210117Z 10006KT 12/M08 A2984 RMK A01 T01201084  RH  023%=      5-min Rain = 0
KCO1 210118Z 10006KT 12/M08 A2984 RMK A01 T01191084  RH  023%=      5-min Rain = 0
KCO1 210119Z 10006KT 12/M08 A2984 RMK A01 T01181084  RH  023%=      5-min Rain = 0
KCO1 210120Z 10006KT 12/M08 A2984 RMK A01 T01181083  RH  024%=      5-min Rain = 0
KCO1 210121Z 10006KT 12/M08 A2984 RMK A01 T01171083  RH  024%=      5-min Rain = 0
KCO1 210122Z 10007KT 12/M08 A2984 RMK A01 T01171082  RH  024%=      5-min Rain = 0
KCO1 210123Z 10007KT 12/M08 A2984 RMK A01 T01161081  RH  024%=      5-min Rain = 0
KCO1 210124Z 11007KT 12/M08 A2984 RMK A01 T01161081  RH  024%=      5-min Rain = 0
KCO1 210125Z 11007KT 12/M08 A2985 RMK A01 T01161080  RH  025%=      5-min Rain = 0
KCO1 210126Z 11006KT 12/M08 A2985 RMK A01 T01161080  RH  025%=      5-min Rain = 0
KCO1 210127Z 11006KT 12/M08 A2985 RMK A01 T01161080  RH  025%=      5-min Rain = 0
KCO1 210128Z 12006KT 12/M08 A2985 RMK A01 T01161079  RH  025%=      5-min Rain = 0
KCO1 210129Z 11007KT 12/M08 A2985 RMK A01 T01161079  RH  025%=      5-min Rain = 0
KCO1 210130Z 11007KT 12/M08 A2985 RMK A01 T01161079  RH  025%=      5-min Rain = 0
KCO1 210131Z 11007KT 12/M08 A2985 RMK A01 T01161080  RH  025%=      5-min Rain = 0
KCO1 210132Z 11007KT 12/M08 A2985 RMK A01 T01171080  RH  025%=      5-min Rain = 0
KCO1 210133Z 11007KT 12/M08 A2985 RMK A01 T01171080  RH  024%=      5-min Rain = 0
KCO1 210134Z 11007KT 12/M08 A2985 RMK A01 T01171080  RH  024%=      5-min Rain = 0
KCO1 210135Z 11007KT 12/M08 A2985 RMK A01 T01171080  RH  024%=      5-min Rain = 0
KCO1 210136Z 11007KT 12/M08 A2985 RMK A01 T01171080  RH  024%=      5-min Rain = 0
KCO1 210137Z 11007KT 12/M08 A2985 RMK A01 T01171080  RH  024%=      5-min Rain = 0
KCO1 210138Z 11006KT 12/M08 A2985 RMK A01 T01171080  RH  024%=      5-min Rain = 0
KCO1 210139Z 11007KT 12/M08 A2985 RMK A01 T01171080  RH  024%=      5-min Rain = 0
KCO1 210140Z 11006KT 12/M08 A2985 RMK A01 T01181080  RH  024%=      5-min Rain = 0
KCO1 210141Z 11006KT 12/M08 A2985 RMK A01 T01171080  RH  024%=      5-min Rain = 0
KCO1 210142Z 11006KT 12/M08 A2985 RMK A01 T01171080  RH  024%=      5-min Rain = 0
KCO1 210143Z 11006KT 12/M08 A2985 RMK A01 T01171080  RH  024%=      5-min Rain = 0
KCO1 210144Z 11006KT 12/M08 A2985 RMK A01 T01171079  RH  025%=      5-min Rain = 0
KCO1 210145Z 11006KT 12/M08 A2985 RMK A01 T01161079  RH  025%=      5-min Rain = 0
KCO1 210146Z 10006KT 12/M08 A2985 RMK A01 T01161079  RH  025%=      5-min Rain = 0
KCO1 210147Z 10006KT 12/M08 A2985 RMK A01 T01151079  RH  025%=      5-min Rain = 0
KCO1 210148Z 10006KT 12/M08 A2985 RMK A01 T01151078  RH  025%=      5-min Rain = 0
KCO1 210149Z 10006KT 12/M08 A2985 RMK A01 T01151078  RH  025%=      5-min Rain = 0
KCO1 210150Z 10006KT 11/M08 A2985 RMK A01 T01141078  RH  025%=      5-min Rain = 0
KCO1 210151Z 10006KT 11/M08 A2985 RMK A01 T01141078  RH  025%=      5-min Rain = 0
KCO1 210152Z 10006KT 11/M08 A2985 RMK A01 T01141078  RH  025%=      5-min Rain = 0
KCO1 210153Z 10005KT 11/M08 A2985 RMK A01 T01141077  RH  025%=      5-min Rain = 0
KCO1 210154Z 09005KT 11/M08 A2985 RMK A01 T01141077  RH  025%=      5-min Rain = 0
KCO1 210155Z 09005KT 11/M08 A2985 RMK A01 T01141078  RH  025%=      5-min Rain = 0
KCO1 210156Z 10005KT 11/M08 A2985 RMK A01 T01141077  RH  025%=      5-min Rain = 0
KCO1 210157Z 09005KT 11/M08 A2985 RMK A01 T01131077  RH  026%=      5-min Rain = 0
KCO1 210158Z 10005KT 11/M08 A2985 RMK A01 T01131077  RH  026%=      5-min Rain = 0
KCO1 210159Z 09005KT 11/M08 A2985 RMK A01 T01131077  RH  026%=      5-min Rain = 0
KCO1 210200Z 09005KT 11/M08 A2985 RMK A01 T01121076  RH  026%=      5-min Rain = 0
KCO1 210201Z 09005KT 11/M08 A2985 RMK A01 T01121076  RH  026%=      5-min Rain = 0
KCO1 210202Z 09005KT 11/M08 A2985 RMK A01 T01121076  RH  026%=      5-min Rain = 0
KCO1 210203Z 09004KT 11/M08 A2985 RMK A01 T01121075  RH  026%=      5-min Rain = 0
KCO1 210204Z 09004KT 11/M08 A2985 RMK A01 T01111075  RH  026%=      5-min Rain = 0
KCO1 210205Z 08004KT 11/M08 A2985 RMK A01 T01111075  RH  026%=      5-min Rain = 0
KCO1 210206Z 08004KT 11/M08 A2985 RMK A01 T01101075  RH  027%=      5-min Rain = 0
KCO1 210207Z 08004KT 11/M08 A2985 RMK A01 T01101075  RH  027%=      5-min Rain = 0
KCO1 210208Z 08004KT 11/M08 A2985 RMK A01 T01101075  RH  027%=      5-min Rain = 0
KCO1 210209Z 08004KT 11/M08 A2985 RMK A01 T01091075  RH  027%=      5-min Rain = 0
KCO1 210210Z 08004KT 11/M08 A2985 RMK A01 T01091075  RH  027%=      5-min Rain = 0
KCO1 210211Z 08004KT 11/M08 A2985 RMK A01 T01081075  RH  027%=      5-min Rain = 0
KCO1 210212Z 08004KT 11/M08 A2985 RMK A01 T01081076  RH  027%=      5-min Rain = 0
KCO1 210213Z 08004KT 11/M08 A2985 RMK A01 T01091075  RH  027%=      5-min Rain = 0
KCO1 210214Z 08004KT 11/M08 A2985 RMK A01 T01081076  RH  027%=      5-min Rain = 0
KCO1 210215Z 08004KT 11/M08 A2985 RMK A01 T01081076  RH  027%=      5-min Rain = 0
KCO1 210216Z 08004KT 11/M08 A2985 RMK A01 T01081076  RH  027%=      5-min Rain = 0
KCO1 210217Z 09005KT 11/M08 A2985 RMK A01 T01081076  RH  027%=      5-min Rain = 0
KCO1 210218Z 09004KT 11/M08 A2985 RMK A01 T01081076  RH  027%=      5-min Rain = 0
KCO1 210219Z 09004KT 11/M08 A2985 RMK A01 T01081076  RH  027%=      5-min Rain = 0
KCO1 210220Z 10004KT 11/M08 A2986 RMK A01 T01081076  RH  027%=      5-min Rain = 0
KCO1 210221Z 09005KT 11/M08 A2986 RMK A01 T01081076  RH  027%=      5-min Rain = 0
KCO1 210222Z 09005KT 11/M08 A2986 RMK A01 T01081075  RH  027%=      5-min Rain = 0
KCO1 210223Z 10005KT 11/M08 A2985 RMK A01 T01081075  RH  027%=      5-min Rain = 0
KCO1 210224Z 10005KT 11/M08 A2985 RMK A01 T01081075  RH  027%=      5-min Rain = 0
KCO1 210225Z 10005KT 11/M08 A2985 RMK A01 T01081075  RH  027%=      5-min Rain = 0
KCO1 210226Z 10005KT 11/M07 A2985 RMK A01 T01081074  RH  027%=      5-min Rain = 0
KCO1 210227Z 10005KT 11/M07 A2985 RMK A01 T01081074  RH  027%=      5-min Rain = 0
KCO1 210228Z 10005KT 11/M07 A2985 RMK A01 T01081074  RH  027%=      5-min Rain = 0
KCO1 210229Z 10006KT 11/M07 A2985 RMK A01 T01081074  RH  027%=      5-min Rain = 0
KCO1 210230Z 10006KT 11/M07 A2985 RMK A01 T01081073  RH  027%=      5-min Rain = 0
KCO1 210231Z 10006KT 11/M07 A2985 RMK A01 T01081074  RH  027%=      5-min Rain = 0
KCO1 210232Z 09006KT 11/M07 A2985 RMK A01 T01081073  RH  027%=      5-min Rain = 0
KCO1 210233Z 09005KT 11/M07 A2985 RMK A01 T01081073  RH  027%=      5-min Rain = 0
KCO1 210234Z 09006KT 11/M07 A2985 RMK A01 T01081073  RH  027%=      5-min Rain = 0
KCO1 210235Z 08006KT 11/M07 A2985 RMK A01 T01081073  RH  027%=      5-min Rain = 0
KCO1 210236Z 08006KT 11/M07 A2985 RMK A01 T01081073  RH  027%=      5-min Rain = 0
KCO1 210237Z 08006KT 11/M07 A2985 RMK A01 T01081073  RH  027%=      5-min Rain = 0
KCO1 210238Z 09005KT 11/M07 A2985 RMK A01 T01091072  RH  027%=      5-min Rain = 0
KCO1 210239Z 09006KT 11/M07 A2985 RMK A01 T01091072  RH  027%=      5-min Rain = 0
KCO1 210240Z 09006KT 11/M07 A2985 RMK A01 T01091072  RH  027%=      5-min Rain = 0
KCO1 210241Z 09006KT 11/M07 A2986 RMK A01 T01091072  RH  027%=      5-min Rain = 0
KCO1 210242Z 09006KT 11/M07 A2985 RMK A01 T01091071  RH  027%=      5-min Rain = 0
KCO1 210243Z 09006KT 11/M07 A2985 RMK A01 T01101072  RH  027%=      5-min Rain = 0
KCO1 210244Z 09007KT 11/M07 A2986 RMK A01 T01101071  RH  027%=      5-min Rain = 0
KCO1 210245Z 10006KT 11/M07 A2986 RMK A01 T01101071  RH  027%=      5-min Rain = 0
KCO1 210246Z 09007KT 11/M07 A2986 RMK A01 T01101071  RH  027%=      5-min Rain = 0
KCO1 210247Z 10006KT 11/M07 A2986 RMK A01 T01111071  RH  027%=      5-min Rain = 0
KCO1 210248Z 10006KT 11/M07 A2985 RMK A01 T01111070  RH  027%=      5-min Rain = 0
KCO1 210249Z 10006KT 11/M07 A2985 RMK A01 T01111070  RH  027%=      5-min Rain = 0
KCO1 210250Z 09006KT 11/M07 A2985 RMK A01 T01111070  RH  028%=      5-min Rain = 0
KCO1 210251Z 09007KT 11/M07 A2985 RMK A01 T01101069  RH  028%=      5-min Rain = 0
KCO1 210252Z 09007KT 11/M07 A2985 RMK A01 T01101069  RH  028%=      5-min Rain = 0
KCO1 210253Z 09007KT 11/M07 A2985 RMK A01 T01101068  RH  028%=      5-min Rain = 0
KCO1 210254Z 09007KT 11/M07 A2985 RMK A01 T01101068  RH  028%=      5-min Rain = 0
KCO1 210255Z 09006KT 11/M07 A2985 RMK A01 T01101068  RH  028%=      5-min Rain = 0
KCO1 210256Z 09007KT 11/M07 A2985 RMK A01 T01111067  RH  028%=      5-min Rain = 0
KCO1 210257Z 09007KT 11/M07 A2985 RMK A01 T01101067  RH  028%=      5-min Rain = 0
KCO1 210258Z 09007KT 11/M07 A2985 RMK A01 T01101067  RH  028%=      5-min Rain = 0
KCO1 210259Z 09006KT 11/M07 A2985 RMK A01 T01101067  RH  028%=      5-min Rain = 0
KCO1 210300Z 09006KT 11/M07 A2985 RMK A01 T01091066  RH  029%=      5-min Rain = 0
KCO1 210301Z 10006KT 11/M07 A2985 RMK A01 T01091066  RH  029%=      5-min Rain = 0
KCO1 210302Z 10006KT 11/M07 A2985 RMK A01 T01091066  RH  029%=      5-min Rain = 0
KCO1 210303Z 10007KT 11/M07 A2985 RMK A01 T01081065  RH  029%=      5-min Rain = 0
KCO1 210304Z 10007KT 11/M07 A2985 RMK A01 T01081065  RH  029%=      5-min Rain = 0
KCO1 210305Z 10006KT 11/M07 A2985 RMK A01 T01081065  RH  029%=      5-min Rain = 0
KCO1 210306Z 10006KT 11/M06 A2985 RMK A01 T01081064  RH  029%=      5-min Rain = 0
KCO1 210307Z 09006KT 11/M06 A2985 RMK A01 T01071064  RH  029%=      5-min Rain = 0
KCO1 210308Z 09007KT 11/M06 A2985 RMK A01 T01071064  RH  030%=      5-min Rain = 0
KCO1 210309Z 09006KT 11/M06 A2985 RMK A01 T01061063  RH  030%=      5-min Rain = 0
KCO1 210310Z 09006KT 11/M06 A2985 RMK A01 T01061063  RH  030%=      5-min Rain = 0
KCO1 210311Z 09008KT 11/M06 A2985 RMK A01 T01061062  RH  030%=      5-min Rain = 0
KCO1 210312Z 09007KT 11/M06 A2985 RMK A01 T01061062  RH  030%=      5-min Rain = 0
KCO1 210313Z 09007KT 11/M06 A2985 RMK A01 T01061062  RH  030%=      5-min Rain = 0
KCO1 210314Z 09007KT 11/M06 A2985 RMK A01 T01051062  RH  030%=      5-min Rain = 0
KCO1 210315Z 08006KT 11/M06 A2985 RMK A01 T01051062  RH  030%=      5-min Rain = 0
KCO1 210316Z 08007KT 11/M06 A2985 RMK A01 T01051061  RH  030%=      5-min Rain = 0
KCO1 210317Z 08006KT 10/M06 A2985 RMK A01 T01041062  RH  031%=      5-min Rain = 0
KCO1 210318Z 08006KT 10/M06 A2984 RMK A01 T01041062  RH  031%=      5-min Rain = 0
KCO1 210319Z 08007KT 10/M06 A2985 RMK A01 T01041061  RH  031%=      5-min Rain = 0
KCO1 210320Z 09007KT 10/M06 A2985 RMK A01 T01041061  RH  031%=      5-min Rain = 0
KCO1 210321Z 09006KT 10/M06 A2985 RMK A01 T01041061  RH  031%=      5-min Rain = 0
KCO1 210322Z 09006KT 10/M06 A2985 RMK A01 T01031061  RH  031%=      5-min Rain = 0
KCO1 210323Z 09006KT 10/M06 A2985 RMK A01 T01031061  RH  031%=      5-min Rain = 0
KCO1 210324Z 09007KT 10/M06 A2985 RMK A01 T01021061  RH  031%=      5-min Rain = 0
KCO1 210325Z 09007KT 10/M06 A2985 RMK A01 T01021060  RH  031%=      5-min Rain = 0
KCO1 210326Z 09007KT 10/M06 A2985 RMK A01 T01011060  RH  032%=      5-min Rain = 0
KCO1 210327Z 09006KT 10/M06 A2985 RMK A01 T01011060  RH  032%=      5-min Rain = 0
KCO1 210328Z 09006KT 10/M06 A2985 RMK A01 T01011060  RH  032%=      5-min Rain = 0
KCO1 210329Z 09006KT 10/M06 A2985 RMK A01 T01001060  RH  032%=      5-min Rain = 0
KCO1 210330Z 09006KT 10/M06 A2985 RMK A01 T01001060  RH  032%=      5-min Rain = 0
KCO1 210331Z 09005KT 10/M06 A2985 RMK A01 T00991060  RH  032%=      5-min Rain = 0
KCO1 210332Z 10006KT 10/M06 A2985 RMK A01 T00991060  RH  032%=      5-min Rain = 0
KCO1 210333Z 10006KT 10/M06 A2985 RMK A01 T00981060  RH  032%=      5-min Rain = 0
KCO1 210334Z 10006KT 10/M06 A2985 RMK A01 T00981060  RH  032%=      5-min Rain = 0
KCO1 210335Z 10008KT 10/M06 A2985 RMK A01 T00971060  RH  032%=      5-min Rain = 0
KCO1 210336Z 10007KT 10/M06 A2985 RMK A01 T00961060  RH  033%=      5-min Rain = 0
KCO1 210337Z 10008KT 10/M06 A2985 RMK A01 T00961060  RH  033%=      5-min Rain = 0
KCO1 210338Z 10008KT 10/M06 A2985 RMK A01 T00961060  RH  033%=      5-min Rain = 0
KCO1 210339Z 10008KT 10/M06 A2985 RMK A01 T00961060  RH  033%=      5-min Rain = 0
KCO1 210340Z 11007KT 10/M06 A2985 RMK A01 T00961060  RH  033%=      5-min Rain = 0
KCO1 210341Z 11008KT 10/M06 A2985 RMK A01 T00951060  RH  033%=      5-min Rain = 0
KCO1 210342Z 11008KT 10/M06 A2985 RMK A01 T00951060  RH  033%=      5-min Rain = 0
KCO1 210343Z 11008KT 10/M06 A2985 RMK A01 T00951059  RH  033%=      5-min Rain = 0
KCO1 210344Z 11008KT 09/M06 A2985 RMK A01 T00941060  RH  033%=      5-min Rain = 0
KCO1 210345Z 11008KT 09/M06 A2985 RMK A01 T00941060  RH  033%=      5-min Rain = 0
KCO1 210346Z 11007KT 09/M06 A2985 RMK A01 T00941060  RH  033%=      5-min Rain = 0
KCO1 210347Z 11007KT 09/M06 A2985 RMK A01 T00941061  RH  033%=      5-min Rain = 0
KCO1 210348Z 11006KT 09/M06 A2985 RMK A01 T00941061  RH  033%=      5-min Rain = 0
KCO1 210349Z 11006KT 09/M06 A2985 RMK A01 T00941061  RH  033%=      5-min Rain = 0
KCO1 210350Z 11006KT 09/M06 A2985 RMK A01 T00941062  RH  033%=      5-min Rain = 0
KCO1 210351Z 11007KT 09/M06 A2985 RMK A01 T00931062  RH  033%=      5-min Rain = 0
KCO1 210352Z 11007KT 09/M06 A2985 RMK A01 T00941062  RH  033%=      5-min Rain = 0
KCO1 210353Z 11008KT 09/M06 A2985 RMK A01 T00941062  RH  033%=      5-min Rain = 0
KCO1 210354Z 11007KT 09/M06 A2985 RMK A01 T00931062  RH  033%=      5-min Rain = 0
KCO1 210355Z 11008KT 09/M06 A2985 RMK A01 T00931063  RH  033%=      5-min Rain = 0
KCO1 210356Z 12008KT 09/M06 A2985 RMK A01 T00931063  RH  033%=      5-min Rain = 0
KCO1 210357Z 12008KT 09/M06 A2985 RMK A01 T00931063  RH  033%=      5-min Rain = 0
KCO1 210358Z 12009KT 09/M06 A2985 RMK A01 T00931063  RH  033%=      5-min Rain = 0
KCO1 210359Z 12008KT 09/M06 A2985 RMK A01 T00931064  RH  032%=      5-min Rain = 0
KCO1 210400Z 12008KT 09/M06 A2985 RMK A01 T00931064  RH  032%=      5-min Rain = 0
KCO1 210401Z 12008KT 09/M06 A2985 RMK A01 T00931064  RH  032%=      5-min Rain = 0
KCO1 210402Z 13008KT 09/M07 A2985 RMK A01 T00931065  RH  032%=      5-min Rain = 0
KCO1 210403Z 13008KT 09/M07 A2985 RMK A01 T00931065  RH  032%=      5-min Rain = 0
KCO1 210404Z 13007KT 09/M07 A2985 RMK A01 T00921066  RH  032%=      5-min Rain = 0
KCO1 210405Z 13008KT 09/M07 A2985 RMK A01 T00931066  RH  032%=      5-min Rain = 0
KCO1 210406Z 13007KT 09/M07 A2985 RMK A01 T00931066  RH  032%=      5-min Rain = 0
KCO1 210407Z 14007KT 09/M07 A2985 RMK A01 T00931066  RH  032%=      5-min Rain = 0
KCO1 210408Z 13007KT 09/M07 A2985 RMK A01 T00931065  RH  032%=      5-min Rain = 0
KCO1 210409Z 13008KT 09/M07 A2985 RMK A01 T00931065  RH  032%=      5-min Rain = 0
KCO1 210410Z 14007KT 09/M07 A2985 RMK A01 T00931065  RH  032%=      5-min Rain = 0
KCO1 210411Z 14007KT 09/M07 A2985 RMK A01 T00941065  RH  032%=      5-min Rain = 0
KCO1 210412Z 13007KT 09/M06 A2985 RMK A01 T00941064  RH  032%=      5-min Rain = 0
KCO1 210413Z 14008KT 09/M06 A2985 RMK A01 T00941064  RH  032%=      5-min Rain = 0
KCO1 210414Z 13007KT 09/M06 A2984 RMK A01 T00941064  RH  032%=      5-min Rain = 0
KCO1 210415Z 13007KT 09/M06 A2984 RMK A01 T00941064  RH  032%=      5-min Rain = 0
KCO1 210416Z 13007KT 10/M06 A2984 RMK A01 T00951063  RH  032%=      5-min Rain = 0
KCO1 210417Z 13008KT 10/M06 A2984 RMK A01 T00951063  RH  032%=      5-min Rain = 0
KCO1 210418Z 13008KT 10/M06 A2984 RMK A01 T00951063  RH  032%=      5-min Rain = 0
KCO1 210419Z 13007KT 09/M06 A2984 RMK A01 T00941063  RH  032%=      5-min Rain = 0
KCO1 210420Z 13007KT 09/M06 A2985 RMK A01 T00941063  RH  032%=      5-min Rain = 0
KCO1 210421Z 13008KT 09/M06 A2985 RMK A01 T00941062  RH  032%=      5-min Rain = 0
KCO1 210422Z 13007KT 10/M06 A2985 RMK A01 T00951062  RH  033%=      5-min Rain = 0
KCO1 210423Z 13008KT 09/M06 A2985 RMK A01 T00941062  RH  033%=      5-min Rain = 0
KCO1 210424Z 13008KT 09/M06 A2985 RMK A01 T00941062  RH  033%=      5-min Rain = 0
KCO1 210425Z 13007KT 09/M06 A2985 RMK A01 T00941061  RH  033%=      5-min Rain = 0
KCO1 210426Z 13007KT 09/M06 A2985 RMK A01 T00941061  RH  033%=      5-min Rain = 0
KCO1 210427Z 13008KT 09/M06 A2985 RMK A01 T00941061  RH  033%=      5-min Rain = 0
KCO1 210428Z 13008KT 10/M06 A2985 RMK A01 T00951061  RH  033%=      5-min Rain = 0
KCO1 210429Z 13008KT 10/M06 A2985 RMK A01 T00951061  RH  033%=      5-min Rain = 0
KCO1 210430Z 12009KT 10/M06 A2985 RMK A01 T00951061  RH  033%=      5-min Rain = 0
KCO1 210431Z 12008KT 10/M06 A2985 RMK A01 T00951060  RH  033%=      5-min Rain = 0
KCO1 210432Z 12007KT 10/M06 A2985 RMK A01 T00951060  RH  033%=      5-min Rain = 0
KCO1 210433Z 13007KT 10/M06 A2985 RMK A01 T00951059  RH  033%=      5-min Rain = 0
KCO1 210434Z 13009KT 10/M06 A2985 RMK A01 T00951059  RH  033%=      5-min Rain = 0
KCO1 210435Z 13008KT 09/M06 A2985 RMK A01 T00941059  RH  033%=      5-min Rain = 0
KCO1 210436Z 13008KT 10/M06 A2985 RMK A01 T00951059  RH  033%=      5-min Rain = 0
KCO1 210437Z 12007KT 10/M06 A2985 RMK A01 T00951058  RH  033%=      5-min Rain = 0
KCO1 210438Z 13008KT 10/M06 A2985 RMK A01 T00961058  RH  033%=      5-min Rain = 0
KCO1 210439Z 12009KT 10/M06 A2985 RMK A01 T00961057  RH  033%=      5-min Rain = 0
KCO1 210440Z 13009KT 10/M06 A2985 RMK A01 T00961057  RH  034%=      5-min Rain = 0
KCO1 210441Z 13009KT 10/M06 A2985 RMK A01 T00951057  RH  034%=      5-min Rain = 0
KCO1 210442Z 13009KT 10/M06 A2985 RMK A01 T00961057  RH  034%=      5-min Rain = 0
KCO1 210443Z 13009KT 10/M06 A2985 RMK A01 T00961056  RH  034%=      5-min Rain = 0
KCO1 210444Z 13009KT 10/M06 A2985 RMK A01 T00961057  RH  034%=      5-min Rain = 0
KCO1 210445Z 13009KT 10/M06 A2985 RMK A01 T00961056  RH  034%=      5-min Rain = 0
KCO1 210446Z 13009KT 10/M06 A2985 RMK A01 T00961056  RH  034%=      5-min Rain = 0
KCO1 210447Z 13009KT 10/M06 A2985 RMK A01 T00961056  RH  034%=      5-min Rain = 0
KCO1 210448Z 13009KT 10/M06 A2985 RMK A01 T00951056  RH  034%=      5-min Rain = 0
KCO1 210449Z 13008KT 10/M06 A2985 RMK A01 T00951056  RH  034%=      5-min Rain = 0
KCO1 210450Z 14010KT 10/M06 A2985 RMK A01 T00951055  RH  034%=      5-min Rain = 0
KCO1 210451Z 14008G13KT 10/M06 A2985 RMK A01 T00951055  RH  034%=      5-min Rain = 0
KCO1 210452Z 13008KT 10/M06 A2984 RMK A01 T00951055  RH  034%=      5-min Rain = 0
KCO1 210453Z 14009KT 10/M06 A2984 RMK A01 T00951055  RH  034%=      5-min Rain = 0
KCO1 210454Z 14010KT 10/M05 A2984 RMK A01 T00961054  RH  034%=      5-min Rain = 0
KCO1 210455Z 14010KT 10/M05 A2984 RMK A01 T00961054  RH  034%=      5-min Rain = 0
KCO1 210456Z 14009KT 10/M05 A2984 RMK A01 T00971054  RH  034%=      5-min Rain = 0
KCO1 210457Z 14009KT 10/M05 A2984 RMK A01 T00971053  RH  034%=      5-min Rain = 0
KCO1 210458Z 14009KT 10/M05 A2984 RMK A01 T00971053  RH  034%=      5-min Rain = 0
KCO1 210459Z 13009KT 10/M05 A2984 RMK A01 T00971052  RH  034%=      5-min Rain = 0
KCO1 210500Z 14009KT 10/M05 A2984 RMK A01 T00971052  RH  035%=      5-min Rain = 0
KCO1 210501Z 15010KT 10/M05 A2984 RMK A01 T00961052  RH  035%=      5-min Rain = 0
KCO1 210502Z 14011KT 10/M05 A2984 RMK A01 T00971052  RH  035%=      5-min Rain = 0
KCO1 210503Z 14011KT 10/M05 A2984 RMK A01 T00971051  RH  035%=      5-min Rain = 0
KCO1 210504Z 14009KT 10/M05 A2984 RMK A01 T00981050  RH  035%=      5-min Rain = 0
KCO1 210505Z 14012KT 10/M05 A2985 RMK A01 T00981050  RH  035%=      5-min Rain = 0
KCO1 210506Z 14011KT 10/M05 A2985 RMK A01 T00981049  RH  035%=      5-min Rain = 0
KCO1 210507Z 14011KT 10/M05 A2985 RMK A01 T00991049  RH  035%=      5-min Rain = 0
KCO1 210508Z 14010KT 10/M05 A2985 RMK A01 T00991049  RH  035%=      5-min Rain = 0
KCO1 210509Z 14010KT 10/M05 A2985 RMK A01 T00991049  RH  035%=      5-min Rain = 0
KCO1 210510Z 14011KT 10/M05 A2985 RMK A01 T00991048  RH  035%=      5-min Rain = 0
KCO1 210511Z 14011KT 10/M05 A2985 RMK A01 T00991048  RH  035%=      5-min Rain = 0
KCO1 210512Z 14011KT 10/M05 A2985 RMK A01 T00991047  RH  035%=      5-min Rain = 0
KCO1 210513Z 14011KT 10/M05 A2985 RMK A01 T00991047  RH  035%=      5-min Rain = 0
KCO1 210514Z 14010KT 10/M05 A2985 RMK A01 T00991047  RH  035%=      5-min Rain = 0
KCO1 210515Z 14010KT 10/M05 A2985 RMK A01 T00991047  RH  035%=      5-min Rain = 0
KCO1 210516Z 14010KT 10/M05 A2985 RMK A01 T00991046  RH  036%=      5-min Rain = 0
KCO1 210517Z 14009KT 10/M05 A2985 RMK A01 T00981046  RH  036%=      5-min Rain = 0
KCO1 210518Z 14010KT 10/M05 A2985 RMK A01 T00981046  RH  036%=      5-min Rain = 0
KCO1 210519Z 13010KT 10/M05 A2985 RMK A01 T00981046  RH  036%=      5-min Rain = 0
KCO1 210520Z 13010KT 10/M05 A2985 RMK A01 T00981047  RH  036%=      5-min Rain = 0
KCO1 210521Z 14010KT 10/M05 A2985 RMK A01 T00981047  RH  036%=      5-min Rain = 0
KCO1 210522Z 13010KT 10/M05 A2985 RMK A01 T00971046  RH  036%=      5-min Rain = 0
KCO1 210523Z 13011KT 10/M05 A2985 RMK A01 T00971046  RH  036%=      5-min Rain = 0
KCO1 210524Z 13010KT 10/M05 A2985 RMK A01 T00971046  RH  036%=      5-min Rain = 0
KCO1 210525Z 13010KT 10/M05 A2985 RMK A01 T00971046  RH  036%=      5-min Rain = 0
KCO1 210526Z 13010KT 10/M05 A2985 RMK A01 T00971046  RH  036%=      5-min Rain = 0
KCO1 210527Z 14009KT 10/M05 A2985 RMK A01 T00981045  RH  036%=      5-min Rain = 0
KCO1 210528Z 14009KT 10/M05 A2985 RMK A01 T00971046  RH  036%=      5-min Rain = 0
KCO1 210529Z 14009KT 10/M05 A2985 RMK A01 T00971046  RH  036%=      5-min Rain = 0
KCO1 210530Z 15008KT 10/M05 A2985 RMK A01 T00971046  RH  036%=      5-min Rain = 0
KCO1 210531Z 14009KT 10/M05 A2985 RMK A01 T00971046  RH  036%=      5-min Rain = 0
KCO1 210532Z 14010KT 10/M05 A2985 RMK A01 T00971046  RH  036%=      5-min Rain = 0
KCO1 210533Z 14009KT 10/M05 A2985 RMK A01 T00971046  RH  036%=      5-min Rain = 0
KCO1 210534Z 15009KT 10/M05 A2984 RMK A01 T00971046  RH  036%=      5-min Rain = 0
KCO1 210535Z 15009KT 10/M05 A2984 RMK A01 T00971045  RH  036%=      5-min Rain = 0
KCO1 210536Z 14008KT 10/M05 A2984 RMK A01 T00971045  RH  036%=      5-min Rain = 0
KCO1 210537Z 14009KT 10/M05 A2984 RMK A01 T00971045  RH  036%=      5-min Rain = 0
KCO1 210538Z 14008KT 10/M05 A2984 RMK A01 T00961045  RH  037%=      5-min Rain = 0
KCO1 210539Z 14008KT 10/M05 A2984 RMK A01 T00961045  RH  037%=      5-min Rain = 0
KCO1 210540Z 14008KT 10/M05 A2984 RMK A01 T00961045  RH  037%=      5-min Rain = 0
KCO1 210541Z 14008KT 10/M05 A2984 RMK A01 T00961045  RH  037%=      5-min Rain = 0
KCO1 210542Z 14007KT 10/M05 A2984 RMK A01 T00961045  RH  037%=      5-min Rain = 0
KCO1 210543Z 14008KT 10/M05 A2985 RMK A01 T00951045  RH  037%=      5-min Rain = 0
KCO1 210544Z 13008KT 10/M05 A2985 RMK A01 T00951045  RH  037%=      5-min Rain = 0
KCO1 210545Z 13007KT 09/M05 A2985 RMK A01 T00941045  RH  037%=      5-min Rain = 0
KCO1 210546Z 13007KT 09/M05 A2985 RMK A01 T00931045  RH  037%=      5-min Rain = 0
KCO1 210547Z 13008KT 09/M05 A2985 RMK A01 T00931046  RH  037%=      5-min Rain = 0
KCO1 210548Z 13007KT 09/M05 A2985 RMK A01 T00921046  RH  037%=      5-min Rain = 0
KCO1 210549Z 13007KT 09/M05 A2985 RMK A01 T00921046  RH  037%=      5-min Rain = 0
KCO1 210550Z 12007KT 09/M05 A2985 RMK A01 T00911047  RH  037%=      5-min Rain = 0
KCO1 210551Z 12007KT 09/M05 A2985 RMK A01 T00911047  RH  037%=      5-min Rain = 0
KCO1 210552Z 12006KT 09/M05 A2985 RMK A01 T00901047  RH  038%=      5-min Rain = 0
KCO1 210553Z 12006KT 09/M05 A2985 RMK A01 T00891047  RH  038%=      5-min Rain = 0
KCO1 210554Z 12005KT 09/M05 A2985 RMK A01 T00891047  RH  038%=      5-min Rain = 0
KCO1 210555Z 12005KT 09/M05 A2985 RMK A01 T00881047  RH  038%=      5-min Rain = 0
KCO1 210556Z 12006KT 09/M05 A2985 RMK A01 T00881047  RH  038%=      5-min Rain = 0
KCO1 210557Z 12006KT 09/M05 A2985 RMK A01 T00871047  RH  038%=      5-min Rain = 0
KCO1 210558Z 12006KT 09/M05 A2985 RMK A01 T00871047  RH  038%=      5-min Rain = 0
KCO1 210559Z 12006KT 09/M05 A2985 RMK A01 T00861047  RH  038%=      5-min Rain = 0

Page generated in 0.0892 seconds.